﻿<?xml version="1.0" encoding="UTF-8" standalone="no" ?>
<gpx xmlns="http://www.topografix.com/GPX/1/1" creator="CompeGPS" version="1.1" xmlns:xsi="http://www.w3.org/2001/XMLSchema-instance" xsi:schemaLocation="http://www.topografix.com/GPX/1/1 http://www.topografix.com/GPX/1/1/gpx.xsd http://www.garmin.com/xmlschemas/GpxExtensions/v3 http://www.garmin.com/xmlschemas/GpxExtensionsv3.xsd http://www.garmin.com/xmlschemas/TrackPointExtension/v1 http://www.garmin.com/xmlschemas/TrackPointExtensionv1.xsd" xmlns:gpxtpx="http://www.garmin.com/xmlschemas/TrackPointExtension/v1">
  <metadata>
    <link href="http://www.compegps.com">
      <text>CompeGPS TEAM, SL</text>
    </link>
    <time>2012-12-09T22:09:24Z</time>
    <bounds maxlat="42.919073" maxlon="0.953591" minlat="42.899363" minlon="0.923960"/>
  </metadata>
<wpt lat="42.919073" lon="0.939883">
<ele>880</ele>
<name>La Cobe</name>
</wpt>
<wpt lat="42.911015" lon="0.930586">
<ele>1120</ele>
<name>Piste de Laroque</name>
</wpt>
<wpt lat="42.906001" lon="0.924229">
<ele>1320</ele>
<name>Piste de l_Usine</name>
</wpt>
<wpt lat="42.904325" lon="0.929154">
<ele>1430</ele>
<name>Clairiere</name>
</wpt>
<wpt lat="42.899415" lon="0.943319">
<ele>1720</ele>
<name>Pic de Serau</name>
</wpt>
<wpt lat="42.899926" lon="0.950860">
<ele>1706</ele>
<name>Pic Mardans</name>
</wpt>
<wpt lat="42.906058" lon="0.950638">
<ele>1420</ele>
<name>Piste Grande Neouere</name>
</wpt>
<wpt lat="42.916206" lon="0.953585">
<ele>1010</ele>
<name>Routes forestieres</name>
</wpt>
<wpt lat="42.914182" lon="0.942283">
<ele>860</ele>
<name>Ruisseau de Cassech</name>
</wpt>
  <trk>
    <name>Pic de Serau</name>
    <trkseg>
      <trkpt lat="42.919073" lon="0.939883">
        <ele>892.2</ele>
        <time>2012-12-09T08:25:32Z</time>
        <name>La Cobe</name>
      </trkpt>
      <trkpt lat="42.919048" lon="0.939805">
        <ele>892.2</ele>
        <time>2012-12-09T08:26:20Z</time>
      </trkpt>
      <trkpt lat="42.918937" lon="0.939731">
        <ele>893.7</ele>
        <time>2012-12-09T08:26:35Z</time>
      </trkpt>
      <trkpt lat="42.918829" lon="0.939677">
        <ele>894.2</ele>
        <time>2012-12-09T08:26:46Z</time>
      </trkpt>
      <trkpt lat="42.918732" lon="0.939623">
        <ele>895.6</ele>
        <time>2012-12-09T08:26:58Z</time>
      </trkpt>
      <trkpt lat="42.918618" lon="0.939563">
        <ele>897.5</ele>
        <time>2012-12-09T08:27:11Z</time>
      </trkpt>
      <trkpt lat="42.918504" lon="0.939493">
        <ele>899.9</ele>
        <time>2012-12-09T08:27:25Z</time>
      </trkpt>
      <trkpt lat="42.918455" lon="0.939359">
        <ele>901.4</ele>
        <time>2012-12-09T08:28:01Z</time>
      </trkpt>
      <trkpt lat="42.918396" lon="0.939186">
        <ele>904.3</ele>
        <time>2012-12-09T08:28:19Z</time>
      </trkpt>
      <trkpt lat="42.918294" lon="0.939066">
        <ele>908.6</ele>
        <time>2012-12-09T08:28:39Z</time>
      </trkpt>
      <trkpt lat="42.918169" lon="0.939085">
        <ele>911.0</ele>
        <time>2012-12-09T08:28:57Z</time>
      </trkpt>
      <trkpt lat="42.917956" lon="0.938900">
        <ele>891.8</ele>
        <time>2012-12-09T08:29:12Z</time>
      </trkpt>
      <trkpt lat="42.917741" lon="0.938630">
        <ele>897.9</ele>
        <time>2012-12-09T08:29:25Z</time>
      </trkpt>
      <trkpt lat="42.917478" lon="0.938427">
        <ele>906.5</ele>
        <time>2012-12-09T08:29:38Z</time>
      </trkpt>
      <trkpt lat="42.917329" lon="0.938067">
        <ele>912.4</ele>
        <time>2012-12-09T08:29:52Z</time>
      </trkpt>
      <trkpt lat="42.917230" lon="0.937617">
        <ele>916.9</ele>
        <time>2012-12-09T08:30:07Z</time>
      </trkpt>
      <trkpt lat="42.917082" lon="0.937302">
        <ele>921.4</ele>
        <time>2012-12-09T08:30:19Z</time>
      </trkpt>
      <trkpt lat="42.916901" lon="0.936852">
        <ele>924.8</ele>
        <time>2012-12-09T08:30:32Z</time>
      </trkpt>
      <trkpt lat="42.916686" lon="0.936784">
        <ele>933.4</ele>
        <time>2012-12-09T08:30:44Z</time>
      </trkpt>
      <trkpt lat="42.916456" lon="0.936649">
        <ele>940.1</ele>
        <time>2012-12-09T08:30:59Z</time>
      </trkpt>
      <trkpt lat="42.916274" lon="0.936582">
        <ele>945.5</ele>
        <time>2012-12-09T08:31:14Z</time>
      </trkpt>
      <trkpt lat="42.916126" lon="0.936498">
        <ele>949.6</ele>
        <time>2012-12-09T08:47:25Z</time>
      </trkpt>
      <trkpt lat="42.915992" lon="0.936441">
        <ele>953.4</ele>
        <time>2012-12-09T08:47:49Z</time>
      </trkpt>
      <trkpt lat="42.915866" lon="0.936372">
        <ele>957.1</ele>
        <time>2012-12-09T08:48:18Z</time>
      </trkpt>
      <trkpt lat="42.915756" lon="0.936338">
        <ele>960.4</ele>
        <time>2012-12-09T08:48:42Z</time>
      </trkpt>
      <trkpt lat="42.915639" lon="0.936269">
        <ele>963.9</ele>
        <time>2012-12-09T08:48:57Z</time>
      </trkpt>
      <trkpt lat="42.915521" lon="0.936211">
        <ele>967.7</ele>
        <time>2012-12-09T08:49:19Z</time>
      </trkpt>
      <trkpt lat="42.915366" lon="0.936193">
        <ele>1011.4</ele>
        <time>2012-12-09T08:50:01Z</time>
      </trkpt>
      <trkpt lat="42.915262" lon="0.936119">
        <ele>1012.4</ele>
        <time>2012-12-09T08:50:10Z</time>
      </trkpt>
      <trkpt lat="42.915186" lon="0.935993">
        <ele>1011.9</ele>
        <time>2012-12-09T08:50:19Z</time>
      </trkpt>
      <trkpt lat="42.915106" lon="0.935880">
        <ele>1012.9</ele>
        <time>2012-12-09T08:50:30Z</time>
      </trkpt>
      <trkpt lat="42.914984" lon="0.935806">
        <ele>1015.8</ele>
        <time>2012-12-09T08:50:42Z</time>
      </trkpt>
      <trkpt lat="42.914871" lon="0.935709">
        <ele>1017.7</ele>
        <time>2012-12-09T08:50:55Z</time>
      </trkpt>
      <trkpt lat="42.914750" lon="0.935581">
        <ele>1019.6</ele>
        <time>2012-12-09T08:51:13Z</time>
      </trkpt>
      <trkpt lat="42.914624" lon="0.935518">
        <ele>1022.0</ele>
        <time>2012-12-09T08:51:30Z</time>
      </trkpt>
      <trkpt lat="42.914492" lon="0.935473">
        <ele>1025.9</ele>
        <time>2012-12-09T08:51:47Z</time>
      </trkpt>
      <trkpt lat="42.914390" lon="0.935406">
        <ele>1026.8</ele>
        <time>2012-12-09T08:51:58Z</time>
      </trkpt>
      <trkpt lat="42.914300" lon="0.935303">
        <ele>1027.3</ele>
        <time>2012-12-09T08:52:09Z</time>
      </trkpt>
      <trkpt lat="42.914191" lon="0.935204">
        <ele>1028.8</ele>
        <time>2012-12-09T08:52:22Z</time>
      </trkpt>
      <trkpt lat="42.914057" lon="0.935138">
        <ele>1029.2</ele>
        <time>2012-12-09T08:52:38Z</time>
      </trkpt>
      <trkpt lat="42.913950" lon="0.935100">
        <ele>1031.2</ele>
        <time>2012-12-09T08:52:51Z</time>
      </trkpt>
      <trkpt lat="42.913811" lon="0.935025">
        <ele>1033.1</ele>
        <time>2012-12-09T08:53:06Z</time>
      </trkpt>
      <trkpt lat="42.913704" lon="0.934986">
        <ele>1035.5</ele>
        <time>2012-12-09T08:53:20Z</time>
      </trkpt>
      <trkpt lat="42.913588" lon="0.934939">
        <ele>1038.4</ele>
        <time>2012-12-09T08:53:38Z</time>
      </trkpt>
      <trkpt lat="42.913470" lon="0.934870">
        <ele>1042.2</ele>
        <time>2012-12-09T08:53:58Z</time>
      </trkpt>
      <trkpt lat="42.913370" lon="0.934821">
        <ele>1045.1</ele>
        <time>2012-12-09T08:54:16Z</time>
      </trkpt>
      <trkpt lat="42.913271" lon="0.934768">
        <ele>1047.0</ele>
        <time>2012-12-09T08:54:34Z</time>
      </trkpt>
      <trkpt lat="42.913159" lon="0.934741">
        <ele>1049.9</ele>
        <time>2012-12-09T08:54:52Z</time>
      </trkpt>
      <trkpt lat="42.913071" lon="0.934648">
        <ele>1051.8</ele>
        <time>2012-12-09T08:55:08Z</time>
      </trkpt>
      <trkpt lat="42.912992" lon="0.934558">
        <ele>1055.2</ele>
        <time>2012-12-09T08:55:24Z</time>
      </trkpt>
      <trkpt lat="42.912909" lon="0.934474">
        <ele>1057.1</ele>
        <time>2012-12-09T08:55:40Z</time>
      </trkpt>
      <trkpt lat="42.912819" lon="0.934368">
        <ele>1058.6</ele>
        <time>2012-12-09T08:55:53Z</time>
      </trkpt>
      <trkpt lat="42.912724" lon="0.934240">
        <ele>1061.9</ele>
        <time>2012-12-09T08:56:12Z</time>
      </trkpt>
      <trkpt lat="42.912621" lon="0.934142">
        <ele>1063.4</ele>
        <time>2012-12-09T08:56:26Z</time>
      </trkpt>
      <trkpt lat="42.912515" lon="0.934034">
        <ele>1065.3</ele>
        <time>2012-12-09T08:56:41Z</time>
      </trkpt>
      <trkpt lat="42.912437" lon="0.933945">
        <ele>1068.2</ele>
        <time>2012-12-09T08:56:55Z</time>
      </trkpt>
      <trkpt lat="42.912365" lon="0.933843">
        <ele>1069.6</ele>
        <time>2012-12-09T08:57:10Z</time>
      </trkpt>
      <trkpt lat="42.912283" lon="0.933730">
        <ele>1072.0</ele>
        <time>2012-12-09T08:57:25Z</time>
      </trkpt>
      <trkpt lat="42.912224" lon="0.933737">
        <ele>1074.4</ele>
        <time>2012-12-09T08:57:42Z</time>
      </trkpt>
      <trkpt lat="42.912285" lon="0.933836">
        <ele>1075.4</ele>
        <time>2012-12-09T08:57:55Z</time>
      </trkpt>
      <trkpt lat="42.912323" lon="0.933966">
        <ele>1076.3</ele>
        <time>2012-12-09T08:58:05Z</time>
      </trkpt>
      <trkpt lat="42.912357" lon="0.934108">
        <ele>1077.3</ele>
        <time>2012-12-09T08:58:17Z</time>
      </trkpt>
      <trkpt lat="42.912388" lon="0.934265">
        <ele>1078.3</ele>
        <time>2012-12-09T08:58:28Z</time>
      </trkpt>
      <trkpt lat="42.912437" lon="0.934409">
        <ele>1079.7</ele>
        <time>2012-12-09T08:58:39Z</time>
      </trkpt>
      <trkpt lat="42.912361" lon="0.934472">
        <ele>1080.7</ele>
        <time>2012-12-09T08:58:54Z</time>
      </trkpt>
      <trkpt lat="42.912280" lon="0.934354">
        <ele>1083.5</ele>
        <time>2012-12-09T08:59:11Z</time>
      </trkpt>
      <trkpt lat="42.912206" lon="0.934244">
        <ele>1087.4</ele>
        <time>2012-12-09T08:59:27Z</time>
      </trkpt>
      <trkpt lat="42.912112" lon="0.934182">
        <ele>1089.8</ele>
        <time>2012-12-09T08:59:47Z</time>
      </trkpt>
      <trkpt lat="42.912018" lon="0.934094">
        <ele>1093.6</ele>
        <time>2012-12-09T09:00:06Z</time>
      </trkpt>
      <trkpt lat="42.911936" lon="0.934020">
        <ele>1097.5</ele>
        <time>2012-12-09T09:00:25Z</time>
      </trkpt>
      <trkpt lat="42.911833" lon="0.933961">
        <ele>1100.8</ele>
        <time>2012-12-09T09:00:47Z</time>
      </trkpt>
      <trkpt lat="42.911740" lon="0.933860">
        <ele>1104.2</ele>
        <time>2012-12-09T09:01:05Z</time>
      </trkpt>
      <trkpt lat="42.911647" lon="0.933752">
        <ele>1108.1</ele>
        <time>2012-12-09T09:02:02Z</time>
      </trkpt>
      <trkpt lat="42.911601" lon="0.933665">
        <ele>1110.9</ele>
        <time>2012-12-09T09:02:17Z</time>
      </trkpt>
      <trkpt lat="42.911509" lon="0.933559">
        <ele>1114.3</ele>
        <time>2012-12-09T09:02:32Z</time>
      </trkpt>
      <trkpt lat="42.911469" lon="0.933398">
        <ele>1117.2</ele>
        <time>2012-12-09T09:02:48Z</time>
      </trkpt>
      <trkpt lat="42.911419" lon="0.933217">
        <ele>1119.6</ele>
        <time>2012-12-09T09:03:04Z</time>
      </trkpt>
      <trkpt lat="42.911409" lon="0.933079">
        <ele>1121.0</ele>
        <time>2012-12-09T09:03:18Z</time>
      </trkpt>
      <trkpt lat="42.911393" lon="0.932915">
        <ele>1122.5</ele>
        <time>2012-12-09T09:03:36Z</time>
      </trkpt>
      <trkpt lat="42.911369" lon="0.932753">
        <ele>1123.9</ele>
        <time>2012-12-09T09:03:51Z</time>
      </trkpt>
      <trkpt lat="42.911359" lon="0.932601">
        <ele>1126.3</ele>
        <time>2012-12-09T09:04:04Z</time>
      </trkpt>
      <trkpt lat="42.911341" lon="0.932459">
        <ele>1126.8</ele>
        <time>2012-12-09T09:04:19Z</time>
      </trkpt>
      <trkpt lat="42.911341" lon="0.932327">
        <ele>1128.7</ele>
        <time>2012-12-09T09:04:36Z</time>
      </trkpt>
      <trkpt lat="42.911345" lon="0.932196">
        <ele>1130.7</ele>
        <time>2012-12-09T09:04:55Z</time>
      </trkpt>
      <trkpt lat="42.911321" lon="0.932057">
        <ele>1133.5</ele>
        <time>2012-12-09T09:05:14Z</time>
      </trkpt>
      <trkpt lat="42.911329" lon="0.931929">
        <ele>1135.0</ele>
        <time>2012-12-09T09:05:34Z</time>
      </trkpt>
      <trkpt lat="42.911351" lon="0.931791">
        <ele>1137.4</ele>
        <time>2012-12-09T09:05:50Z</time>
      </trkpt>
      <trkpt lat="42.911353" lon="0.931644">
        <ele>1139.3</ele>
        <time>2012-12-09T09:06:06Z</time>
      </trkpt>
      <trkpt lat="42.911346" lon="0.931472">
        <ele>1142.7</ele>
        <time>2012-12-09T09:06:29Z</time>
      </trkpt>
      <trkpt lat="42.911348" lon="0.931346">
        <ele>1143.6</ele>
        <time>2012-12-09T09:06:46Z</time>
      </trkpt>
      <trkpt lat="42.911347" lon="0.931213">
        <ele>1145.1</ele>
        <time>2012-12-09T09:07:02Z</time>
      </trkpt>
      <trkpt lat="42.911339" lon="0.931070">
        <ele>1147.0</ele>
        <time>2012-12-09T09:07:18Z</time>
      </trkpt>
      <trkpt lat="42.911167" lon="0.931015">
        <ele>1091.2</ele>
        <time>2012-12-09T09:07:35Z</time>
      </trkpt>
      <trkpt lat="42.911116" lon="0.930826">
        <ele>1097.3</ele>
        <time>2012-12-09T09:09:13Z</time>
      </trkpt>
      <trkpt lat="42.911015" lon="0.930586">
        <ele>1106.5</ele>
        <time>2012-12-09T09:13:19Z</time>
        <name>Piste de Laroque</name>
      </trkpt>
      <trkpt lat="42.910902" lon="0.930379">
        <ele>1116.3</ele>
        <time>2012-12-09T09:16:02Z</time>
      </trkpt>
      <trkpt lat="42.910783" lon="0.930293">
        <ele>1124.7</ele>
        <time>2012-12-09T09:30:29Z</time>
      </trkpt>
      <trkpt lat="42.910735" lon="0.930161">
        <ele>1127.6</ele>
        <time>2012-12-09T09:31:10Z</time>
      </trkpt>
      <trkpt lat="42.910641" lon="0.930096">
        <ele>1184.5</ele>
        <time>2012-12-09T09:34:06Z</time>
      </trkpt>
      <trkpt lat="42.910592" lon="0.930111">
        <ele>1185.4</ele>
        <time>2012-12-09T09:36:44Z</time>
      </trkpt>
      <trkpt lat="42.910503" lon="0.930026">
        <ele>1185.4</ele>
        <time>2012-12-09T09:36:58Z</time>
      </trkpt>
      <trkpt lat="42.910399" lon="0.929938">
        <ele>1185.4</ele>
        <time>2012-12-09T09:37:09Z</time>
      </trkpt>
      <trkpt lat="42.910303" lon="0.929871">
        <ele>1185.9</ele>
        <time>2012-12-09T09:37:20Z</time>
      </trkpt>
      <trkpt lat="42.910208" lon="0.929799">
        <ele>1186.9</ele>
        <time>2012-12-09T09:37:31Z</time>
      </trkpt>
      <trkpt lat="42.910114" lon="0.929741">
        <ele>1186.9</ele>
        <time>2012-12-09T09:37:41Z</time>
      </trkpt>
      <trkpt lat="42.910012" lon="0.929667">
        <ele>1187.4</ele>
        <time>2012-12-09T09:37:53Z</time>
      </trkpt>
      <trkpt lat="42.909910" lon="0.929591">
        <ele>1187.4</ele>
        <time>2012-12-09T09:38:04Z</time>
      </trkpt>
      <trkpt lat="42.909805" lon="0.929523">
        <ele>1187.8</ele>
        <time>2012-12-09T09:38:15Z</time>
      </trkpt>
      <trkpt lat="42.909705" lon="0.929446">
        <ele>1188.3</ele>
        <time>2012-12-09T09:38:27Z</time>
      </trkpt>
      <trkpt lat="42.909616" lon="0.929383">
        <ele>1188.8</ele>
        <time>2012-12-09T09:38:37Z</time>
      </trkpt>
      <trkpt lat="42.909513" lon="0.929311">
        <ele>1188.8</ele>
        <time>2012-12-09T09:38:49Z</time>
      </trkpt>
      <trkpt lat="42.909415" lon="0.929236">
        <ele>1189.3</ele>
        <time>2012-12-09T09:39:01Z</time>
      </trkpt>
      <trkpt lat="42.909316" lon="0.929175">
        <ele>1190.2</ele>
        <time>2012-12-09T09:39:12Z</time>
      </trkpt>
      <trkpt lat="42.909218" lon="0.929101">
        <ele>1190.2</ele>
        <time>2012-12-09T09:39:23Z</time>
      </trkpt>
      <trkpt lat="42.909138" lon="0.929018">
        <ele>1190.7</ele>
        <time>2012-12-09T09:39:33Z</time>
      </trkpt>
      <trkpt lat="42.909058" lon="0.928934">
        <ele>1191.2</ele>
        <time>2012-12-09T09:39:43Z</time>
      </trkpt>
      <trkpt lat="42.908976" lon="0.928820">
        <ele>1191.7</ele>
        <time>2012-12-09T09:39:54Z</time>
      </trkpt>
      <trkpt lat="42.908909" lon="0.928708">
        <ele>1191.7</ele>
        <time>2012-12-09T09:40:05Z</time>
      </trkpt>
      <trkpt lat="42.908857" lon="0.928572">
        <ele>1192.2</ele>
        <time>2012-12-09T09:40:17Z</time>
      </trkpt>
      <trkpt lat="42.908819" lon="0.928431">
        <ele>1192.2</ele>
        <time>2012-12-09T09:40:29Z</time>
      </trkpt>
      <trkpt lat="42.908789" lon="0.928278">
        <ele>1192.2</ele>
        <time>2012-12-09T09:40:41Z</time>
      </trkpt>
      <trkpt lat="42.908709" lon="0.928164">
        <ele>1195.1</ele>
        <time>2012-12-09T09:41:04Z</time>
      </trkpt>
      <trkpt lat="42.908647" lon="0.928050">
        <ele>1199.4</ele>
        <time>2012-12-09T09:41:26Z</time>
      </trkpt>
      <trkpt lat="42.908524" lon="0.927953">
        <ele>1203.2</ele>
        <time>2012-12-09T09:41:47Z</time>
      </trkpt>
      <trkpt lat="42.908437" lon="0.927862">
        <ele>1206.1</ele>
        <time>2012-12-09T09:42:05Z</time>
      </trkpt>
      <trkpt lat="42.908336" lon="0.927752">
        <ele>1210.4</ele>
        <time>2012-12-09T09:42:28Z</time>
      </trkpt>
      <trkpt lat="42.908220" lon="0.927667">
        <ele>1214.3</ele>
        <time>2012-12-09T09:42:52Z</time>
      </trkpt>
      <trkpt lat="42.908098" lon="0.927598">
        <ele>1218.1</ele>
        <time>2012-12-09T09:43:16Z</time>
      </trkpt>
      <trkpt lat="42.907995" lon="0.927463">
        <ele>1224.4</ele>
        <time>2012-12-09T09:43:49Z</time>
      </trkpt>
      <trkpt lat="42.907859" lon="0.927338">
        <ele>1229.7</ele>
        <time>2012-12-09T09:44:19Z</time>
      </trkpt>
      <trkpt lat="42.907715" lon="0.927253">
        <ele>1234.9</ele>
        <time>2012-12-09T09:44:51Z</time>
      </trkpt>
      <trkpt lat="42.907622" lon="0.927166">
        <ele>1239.8</ele>
        <time>2012-12-09T09:45:15Z</time>
      </trkpt>
      <trkpt lat="42.907506" lon="0.927095">
        <ele>1244.1</ele>
        <time>2012-12-09T09:45:40Z</time>
      </trkpt>
      <trkpt lat="42.907383" lon="0.926902">
        <ele>1248.9</ele>
        <time>2012-12-09T09:46:16Z</time>
      </trkpt>
      <trkpt lat="42.907293" lon="0.926786">
        <ele>1251.8</ele>
        <time>2012-12-09T09:46:39Z</time>
      </trkpt>
      <trkpt lat="42.907194" lon="0.926673">
        <ele>1255.6</ele>
        <time>2012-12-09T09:47:01Z</time>
      </trkpt>
      <trkpt lat="42.907146" lon="0.926491">
        <ele>1259.9</ele>
        <time>2012-12-09T09:47:25Z</time>
      </trkpt>
      <trkpt lat="42.907042" lon="0.926377">
        <ele>1263.8</ele>
        <time>2012-12-09T09:47:50Z</time>
      </trkpt>
      <trkpt lat="42.906956" lon="0.926229">
        <ele>1266.7</ele>
        <time>2012-12-09T09:48:12Z</time>
      </trkpt>
      <trkpt lat="42.906855" lon="0.926095">
        <ele>1272.0</ele>
        <time>2012-12-09T09:48:39Z</time>
      </trkpt>
      <trkpt lat="42.906792" lon="0.925912">
        <ele>1275.8</ele>
        <time>2012-12-09T09:49:03Z</time>
      </trkpt>
      <trkpt lat="42.906764" lon="0.925738">
        <ele>1279.2</ele>
        <time>2012-12-09T09:49:31Z</time>
      </trkpt>
      <trkpt lat="42.906659" lon="0.925485">
        <ele>1283.0</ele>
        <time>2012-12-09T09:49:57Z</time>
      </trkpt>
      <trkpt lat="42.906628" lon="0.925423">
        <ele>1285.9</ele>
        <time>2012-12-09T09:51:52Z</time>
      </trkpt>
      <trkpt lat="42.906554" lon="0.925265">
        <ele>1290.2</ele>
        <time>2012-12-09T09:52:15Z</time>
      </trkpt>
      <trkpt lat="42.906463" lon="0.925090">
        <ele>1294.6</ele>
        <time>2012-12-09T09:52:36Z</time>
      </trkpt>
      <trkpt lat="42.906379" lon="0.924926">
        <ele>1297.9</ele>
        <time>2012-12-09T09:52:56Z</time>
      </trkpt>
      <trkpt lat="42.906308" lon="0.924771">
        <ele>1300.8</ele>
        <time>2012-12-09T09:53:17Z</time>
      </trkpt>
      <trkpt lat="42.906222" lon="0.924645">
        <ele>1304.2</ele>
        <time>2012-12-09T09:53:35Z</time>
      </trkpt>
      <trkpt lat="42.906153" lon="0.924505">
        <ele>1308.0</ele>
        <time>2012-12-09T09:53:54Z</time>
      </trkpt>
      <trkpt lat="42.906066" lon="0.924373">
        <ele>1310.9</ele>
        <time>2012-12-09T09:54:12Z</time>
      </trkpt>
      <trkpt lat="42.906001" lon="0.924229">
        <ele>1313.8</ele>
        <time>2012-12-09T09:54:31Z</time>
        <name>Piste de l_Usine</name>
      </trkpt>
      <trkpt lat="42.905920" lon="0.924137">
        <ele>1315.2</ele>
        <time>2012-12-09T09:54:44Z</time>
      </trkpt>
      <trkpt lat="42.905853" lon="0.924027">
        <ele>1316.2</ele>
        <time>2012-12-09T09:54:57Z</time>
      </trkpt>
      <trkpt lat="42.905781" lon="0.923960">
        <ele>1318.1</ele>
        <time>2012-12-09T09:59:31Z</time>
      </trkpt>
      <trkpt lat="42.905785" lon="0.924030">
        <ele>1318.1</ele>
        <time>2012-12-09T10:00:13Z</time>
      </trkpt>
      <trkpt lat="42.905667" lon="0.924035">
        <ele>1321.9</ele>
        <time>2012-12-09T10:00:38Z</time>
      </trkpt>
      <trkpt lat="42.905588" lon="0.924023">
        <ele>1325.8</ele>
        <time>2012-12-09T10:01:04Z</time>
      </trkpt>
      <trkpt lat="42.905472" lon="0.924017">
        <ele>1327.2</ele>
        <time>2012-12-09T10:01:22Z</time>
      </trkpt>
      <trkpt lat="42.905443" lon="0.924092">
        <ele>1329.6</ele>
        <time>2012-12-09T10:02:48Z</time>
      </trkpt>
      <trkpt lat="42.905378" lon="0.924263">
        <ele>1331.6</ele>
        <time>2012-12-09T10:03:04Z</time>
      </trkpt>
      <trkpt lat="42.905361" lon="0.924403">
        <ele>1334.0</ele>
        <time>2012-12-09T10:03:19Z</time>
      </trkpt>
      <trkpt lat="42.905364" lon="0.924522">
        <ele>1336.4</ele>
        <time>2012-12-09T10:03:33Z</time>
      </trkpt>
      <trkpt lat="42.905391" lon="0.924669">
        <ele>1340.2</ele>
        <time>2012-12-09T10:03:50Z</time>
      </trkpt>
      <trkpt lat="42.905391" lon="0.924800">
        <ele>1341.7</ele>
        <time>2012-12-09T10:04:05Z</time>
      </trkpt>
      <trkpt lat="42.905384" lon="0.924943">
        <ele>1344.1</ele>
        <time>2012-12-09T10:04:20Z</time>
      </trkpt>
      <trkpt lat="42.905368" lon="0.925089">
        <ele>1346.0</ele>
        <time>2012-12-09T10:04:35Z</time>
      </trkpt>
      <trkpt lat="42.905332" lon="0.925225">
        <ele>1348.4</ele>
        <time>2012-12-09T10:04:50Z</time>
      </trkpt>
      <trkpt lat="42.905289" lon="0.925355">
        <ele>1350.3</ele>
        <time>2012-12-09T10:05:06Z</time>
      </trkpt>
      <trkpt lat="42.905265" lon="0.925512">
        <ele>1352.7</ele>
        <time>2012-12-09T10:05:21Z</time>
      </trkpt>
      <trkpt lat="42.905184" lon="0.925617">
        <ele>1355.1</ele>
        <time>2012-12-09T10:05:38Z</time>
      </trkpt>
      <trkpt lat="42.905135" lon="0.925730">
        <ele>1358.5</ele>
        <time>2012-12-09T10:05:59Z</time>
      </trkpt>
      <trkpt lat="42.905047" lon="0.925894">
        <ele>1363.3</ele>
        <time>2012-12-09T10:06:22Z</time>
      </trkpt>
      <trkpt lat="42.904972" lon="0.926051">
        <ele>1367.1</ele>
        <time>2012-12-09T10:06:41Z</time>
      </trkpt>
      <trkpt lat="42.904916" lon="0.926148">
        <ele>1370.5</ele>
        <time>2012-12-09T10:06:59Z</time>
      </trkpt>
      <trkpt lat="42.904884" lon="0.926312">
        <ele>1374.3</ele>
        <time>2012-12-09T10:07:22Z</time>
      </trkpt>
      <trkpt lat="42.904828" lon="0.926408">
        <ele>1377.7</ele>
        <time>2012-12-09T10:07:42Z</time>
      </trkpt>
      <trkpt lat="42.904771" lon="0.926522">
        <ele>1381.6</ele>
        <time>2012-12-09T10:08:00Z</time>
      </trkpt>
      <trkpt lat="42.904691" lon="0.926676">
        <ele>1384.9</ele>
        <time>2012-12-09T10:08:22Z</time>
      </trkpt>
      <trkpt lat="42.904616" lon="0.926831">
        <ele>1389.7</ele>
        <time>2012-12-09T10:08:47Z</time>
      </trkpt>
      <trkpt lat="42.904525" lon="0.926971">
        <ele>1393.1</ele>
        <time>2012-12-09T10:09:10Z</time>
      </trkpt>
      <trkpt lat="42.904489" lon="0.927088">
        <ele>1396.4</ele>
        <time>2012-12-09T10:09:28Z</time>
      </trkpt>
      <trkpt lat="42.904421" lon="0.927260">
        <ele>1399.3</ele>
        <time>2012-12-09T10:09:49Z</time>
      </trkpt>
      <trkpt lat="42.904392" lon="0.927428">
        <ele>1403.2</ele>
        <time>2012-12-09T10:10:09Z</time>
      </trkpt>
      <trkpt lat="42.904370" lon="0.927542">
        <ele>1406.6</ele>
        <time>2012-12-09T10:10:29Z</time>
      </trkpt>
      <trkpt lat="42.904345" lon="0.927695">
        <ele>1409.9</ele>
        <time>2012-12-09T10:10:47Z</time>
      </trkpt>
      <trkpt lat="42.904316" lon="0.927820">
        <ele>1412.3</ele>
        <time>2012-12-09T10:11:04Z</time>
      </trkpt>
      <trkpt lat="42.904285" lon="0.928000">
        <ele>1414.7</ele>
        <time>2012-12-09T10:11:21Z</time>
      </trkpt>
      <trkpt lat="42.904253" lon="0.928152">
        <ele>1416.2</ele>
        <time>2012-12-09T10:11:37Z</time>
      </trkpt>
      <trkpt lat="42.904226" lon="0.928305">
        <ele>1418.1</ele>
        <time>2012-12-09T10:11:52Z</time>
      </trkpt>
      <trkpt lat="42.904206" lon="0.928453">
        <ele>1419.0</ele>
        <time>2012-12-09T10:12:08Z</time>
      </trkpt>
      <trkpt lat="42.904191" lon="0.928587">
        <ele>1421.0</ele>
        <time>2012-12-09T10:12:21Z</time>
      </trkpt>
      <trkpt lat="42.904177" lon="0.928700">
        <ele>1421.9</ele>
        <time>2012-12-09T10:12:35Z</time>
      </trkpt>
      <trkpt lat="42.904173" lon="0.928840">
        <ele>1423.4</ele>
        <time>2012-12-09T10:12:50Z</time>
      </trkpt>
      <trkpt lat="42.904163" lon="0.928988">
        <ele>1424.8</ele>
        <time>2012-12-09T10:13:05Z</time>
      </trkpt>
      <trkpt lat="42.904164" lon="0.929127">
        <ele>1425.8</ele>
        <time>2012-12-09T10:13:19Z</time>
      </trkpt>
      <trkpt lat="42.904219" lon="0.929202">
        <ele>1428.2</ele>
        <time>2012-12-09T10:13:32Z</time>
      </trkpt>
      <trkpt lat="42.904325" lon="0.929154">
        <ele>1431.1</ele>
        <time>2012-12-09T10:13:52Z</time>
        <name>Clairiere</name>
      </trkpt>
      <trkpt lat="42.904394" lon="0.929080">
        <ele>1433.5</ele>
        <time>2012-12-09T10:14:08Z</time>
      </trkpt>
      <trkpt lat="42.904464" lon="0.928995">
        <ele>1433.9</ele>
        <time>2012-12-09T10:14:25Z</time>
      </trkpt>
      <trkpt lat="42.904511" lon="0.928936">
        <ele>1435.4</ele>
        <time>2012-12-09T10:15:02Z</time>
      </trkpt>
      <trkpt lat="42.904508" lon="0.928922">
        <ele>1435.9</ele>
        <time>2012-12-09T10:26:58Z</time>
      </trkpt>
      <trkpt lat="42.904607" lon="0.929007">
        <ele>1437.8</ele>
        <time>2012-12-09T10:27:15Z</time>
      </trkpt>
      <trkpt lat="42.904649" lon="0.929114">
        <ele>1438.3</ele>
        <time>2012-12-09T10:27:28Z</time>
      </trkpt>
      <trkpt lat="42.904671" lon="0.929254">
        <ele>1441.2</ele>
        <time>2012-12-09T10:27:42Z</time>
      </trkpt>
      <trkpt lat="42.904687" lon="0.929380">
        <ele>1443.1</ele>
        <time>2012-12-09T10:27:55Z</time>
      </trkpt>
      <trkpt lat="42.904703" lon="0.929492">
        <ele>1444.5</ele>
        <time>2012-12-09T10:28:12Z</time>
      </trkpt>
      <trkpt lat="42.904716" lon="0.929637">
        <ele>1446.9</ele>
        <time>2012-12-09T10:28:24Z</time>
      </trkpt>
      <trkpt lat="42.904725" lon="0.929773">
        <ele>1448.8</ele>
        <time>2012-12-09T10:28:37Z</time>
      </trkpt>
      <trkpt lat="42.904748" lon="0.929896">
        <ele>1452.2</ele>
        <time>2012-12-09T10:28:51Z</time>
      </trkpt>
      <trkpt lat="42.904767" lon="0.930015">
        <ele>1455.6</ele>
        <time>2012-12-09T10:29:07Z</time>
      </trkpt>
      <trkpt lat="42.904812" lon="0.930136">
        <ele>1458.0</ele>
        <time>2012-12-09T10:29:22Z</time>
      </trkpt>
      <trkpt lat="42.904841" lon="0.930263">
        <ele>1461.3</ele>
        <time>2012-12-09T10:29:36Z</time>
      </trkpt>
      <trkpt lat="42.904836" lon="0.930403">
        <ele>1463.7</ele>
        <time>2012-12-09T10:29:52Z</time>
      </trkpt>
      <trkpt lat="42.904837" lon="0.930535">
        <ele>1466.2</ele>
        <time>2012-12-09T10:30:10Z</time>
      </trkpt>
      <trkpt lat="42.904798" lon="0.930658">
        <ele>1468.6</ele>
        <time>2012-12-09T10:30:24Z</time>
      </trkpt>
      <trkpt lat="42.904823" lon="0.930803">
        <ele>1471.4</ele>
        <time>2012-12-09T10:30:42Z</time>
      </trkpt>
      <trkpt lat="42.904778" lon="0.930983">
        <ele>1475.8</ele>
        <time>2012-12-09T10:31:06Z</time>
      </trkpt>
      <trkpt lat="42.904769" lon="0.931154">
        <ele>1480.1</ele>
        <time>2012-12-09T10:31:33Z</time>
      </trkpt>
      <trkpt lat="42.904670" lon="0.931268">
        <ele>1483.9</ele>
        <time>2012-12-09T10:32:02Z</time>
      </trkpt>
      <trkpt lat="42.904660" lon="0.931408">
        <ele>1488.7</ele>
        <time>2012-12-09T10:32:27Z</time>
      </trkpt>
      <trkpt lat="42.904629" lon="0.931593">
        <ele>1495.0</ele>
        <time>2012-12-09T10:33:05Z</time>
      </trkpt>
      <trkpt lat="42.904602" lon="0.931817">
        <ele>1501.7</ele>
        <time>2012-12-09T10:33:39Z</time>
      </trkpt>
      <trkpt lat="42.904514" lon="0.931938">
        <ele>1506.0</ele>
        <time>2012-12-09T10:34:06Z</time>
      </trkpt>
      <trkpt lat="42.904491" lon="0.932118">
        <ele>1510.8</ele>
        <time>2012-12-09T10:34:33Z</time>
      </trkpt>
      <trkpt lat="42.904495" lon="0.932270">
        <ele>1517.6</ele>
        <time>2012-12-09T10:35:04Z</time>
      </trkpt>
      <trkpt lat="42.904475" lon="0.932476">
        <ele>1522.9</ele>
        <time>2012-12-09T10:35:34Z</time>
      </trkpt>
      <trkpt lat="42.904440" lon="0.932671">
        <ele>1526.7</ele>
        <time>2012-12-09T10:35:57Z</time>
      </trkpt>
      <trkpt lat="42.904389" lon="0.932880">
        <ele>1529.6</ele>
        <time>2012-12-09T10:36:19Z</time>
      </trkpt>
      <trkpt lat="42.904420" lon="0.933027">
        <ele>1532.5</ele>
        <time>2012-12-09T10:36:41Z</time>
      </trkpt>
      <trkpt lat="42.904345" lon="0.933140">
        <ele>1533.4</ele>
        <time>2012-12-09T10:37:03Z</time>
      </trkpt>
      <trkpt lat="42.904263" lon="0.933341">
        <ele>1535.8</ele>
        <time>2012-12-09T10:37:25Z</time>
      </trkpt>
      <trkpt lat="42.904180" lon="0.933490">
        <ele>1539.2</ele>
        <time>2012-12-09T10:37:45Z</time>
      </trkpt>
      <trkpt lat="42.904121" lon="0.933673">
        <ele>1544.0</ele>
        <time>2012-12-09T10:38:13Z</time>
      </trkpt>
      <trkpt lat="42.904079" lon="0.933871">
        <ele>1547.9</ele>
        <time>2012-12-09T10:38:37Z</time>
      </trkpt>
      <trkpt lat="42.904012" lon="0.934040">
        <ele>1549.3</ele>
        <time>2012-12-09T10:38:54Z</time>
      </trkpt>
      <trkpt lat="42.903958" lon="0.934148">
        <ele>1549.3</ele>
        <time>2012-12-09T10:39:16Z</time>
      </trkpt>
      <trkpt lat="42.903908" lon="0.934272">
        <ele>1549.8</ele>
        <time>2012-12-09T10:39:37Z</time>
      </trkpt>
      <trkpt lat="42.903896" lon="0.934260">
        <ele>1550.3</ele>
        <time>2012-12-09T10:45:38Z</time>
      </trkpt>
      <trkpt lat="42.903871" lon="0.934348">
        <ele>1549.8</ele>
        <time>2012-12-09T10:46:17Z</time>
      </trkpt>
      <trkpt lat="42.903814" lon="0.934462">
        <ele>1549.8</ele>
        <time>2012-12-09T10:46:29Z</time>
      </trkpt>
      <trkpt lat="42.903730" lon="0.934571">
        <ele>1550.3</ele>
        <time>2012-12-09T10:46:41Z</time>
      </trkpt>
      <trkpt lat="42.903676" lon="0.934717">
        <ele>1551.7</ele>
        <time>2012-12-09T10:46:53Z</time>
      </trkpt>
      <trkpt lat="42.903629" lon="0.934859">
        <ele>1553.2</ele>
        <time>2012-12-09T10:47:05Z</time>
      </trkpt>
      <trkpt lat="42.903558" lon="0.934956">
        <ele>1555.1</ele>
        <time>2012-12-09T10:47:16Z</time>
      </trkpt>
      <trkpt lat="42.903492" lon="0.935061">
        <ele>1556.5</ele>
        <time>2012-12-09T10:47:32Z</time>
      </trkpt>
      <trkpt lat="42.903392" lon="0.935106">
        <ele>1558.4</ele>
        <time>2012-12-09T10:47:43Z</time>
      </trkpt>
      <trkpt lat="42.903330" lon="0.935214">
        <ele>1558.9</ele>
        <time>2012-12-09T10:47:54Z</time>
      </trkpt>
      <trkpt lat="42.903252" lon="0.935321">
        <ele>1558.4</ele>
        <time>2012-12-09T10:48:04Z</time>
      </trkpt>
      <trkpt lat="42.903168" lon="0.935415">
        <ele>1559.4</ele>
        <time>2012-12-09T10:48:15Z</time>
      </trkpt>
      <trkpt lat="42.903081" lon="0.935484">
        <ele>1559.9</ele>
        <time>2012-12-09T10:48:24Z</time>
      </trkpt>
      <trkpt lat="42.903000" lon="0.935569">
        <ele>1561.3</ele>
        <time>2012-12-09T10:48:35Z</time>
      </trkpt>
      <trkpt lat="42.902926" lon="0.935675">
        <ele>1563.2</ele>
        <time>2012-12-09T10:48:48Z</time>
      </trkpt>
      <trkpt lat="42.902845" lon="0.935760">
        <ele>1566.6</ele>
        <time>2012-12-09T10:49:03Z</time>
      </trkpt>
      <trkpt lat="42.902745" lon="0.935793">
        <ele>1569.5</ele>
        <time>2012-12-09T10:49:20Z</time>
      </trkpt>
      <trkpt lat="42.902685" lon="0.935922">
        <ele>1573.8</ele>
        <time>2012-12-09T10:49:42Z</time>
      </trkpt>
      <trkpt lat="42.902584" lon="0.936059">
        <ele>1577.7</ele>
        <time>2012-12-09T10:50:06Z</time>
      </trkpt>
      <trkpt lat="42.902481" lon="0.936159">
        <ele>1581.0</ele>
        <time>2012-12-09T10:50:28Z</time>
      </trkpt>
      <trkpt lat="42.902386" lon="0.936244">
        <ele>1583.9</ele>
        <time>2012-12-09T10:50:52Z</time>
      </trkpt>
      <trkpt lat="42.902309" lon="0.936424">
        <ele>1586.8</ele>
        <time>2012-12-09T10:51:14Z</time>
      </trkpt>
      <trkpt lat="42.902195" lon="0.936599">
        <ele>1590.2</ele>
        <time>2012-12-09T10:51:38Z</time>
      </trkpt>
      <trkpt lat="42.902118" lon="0.936669">
        <ele>1594.5</ele>
        <time>2012-12-09T10:52:02Z</time>
      </trkpt>
      <trkpt lat="42.901997" lon="0.936700">
        <ele>1598.8</ele>
        <time>2012-12-09T10:52:24Z</time>
      </trkpt>
      <trkpt lat="42.901954" lon="0.936849">
        <ele>1601.2</ele>
        <time>2012-12-09T10:52:43Z</time>
      </trkpt>
      <trkpt lat="42.901923" lon="0.936966">
        <ele>1603.6</ele>
        <time>2012-12-09T10:54:48Z</time>
      </trkpt>
      <trkpt lat="42.901851" lon="0.937071">
        <ele>1606.5</ele>
        <time>2012-12-09T10:55:04Z</time>
      </trkpt>
      <trkpt lat="42.901773" lon="0.937170">
        <ele>1607.9</ele>
        <time>2012-12-09T10:55:19Z</time>
      </trkpt>
      <trkpt lat="42.901711" lon="0.937277">
        <ele>1608.9</ele>
        <time>2012-12-09T10:55:31Z</time>
      </trkpt>
      <trkpt lat="42.901639" lon="0.937371">
        <ele>1610.8</ele>
        <time>2012-12-09T10:55:44Z</time>
      </trkpt>
      <trkpt lat="42.901579" lon="0.937466">
        <ele>1611.3</ele>
        <time>2012-12-09T10:55:55Z</time>
      </trkpt>
      <trkpt lat="42.901503" lon="0.937541">
        <ele>1610.8</ele>
        <time>2012-12-09T10:56:06Z</time>
      </trkpt>
      <trkpt lat="42.901438" lon="0.937612">
        <ele>1612.3</ele>
        <time>2012-12-09T10:56:19Z</time>
      </trkpt>
      <trkpt lat="42.901417" lon="0.937754">
        <ele>1614.7</ele>
        <time>2012-12-09T10:56:34Z</time>
      </trkpt>
      <trkpt lat="42.901357" lon="0.937869">
        <ele>1617.1</ele>
        <time>2012-12-09T10:56:47Z</time>
      </trkpt>
      <trkpt lat="42.901308" lon="0.937968">
        <ele>1619.0</ele>
        <time>2012-12-09T10:57:04Z</time>
      </trkpt>
      <trkpt lat="42.901227" lon="0.938052">
        <ele>1621.4</ele>
        <time>2012-12-09T10:57:21Z</time>
      </trkpt>
      <trkpt lat="42.901221" lon="0.938166">
        <ele>1624.8</ele>
        <time>2012-12-09T10:57:45Z</time>
      </trkpt>
      <trkpt lat="42.901130" lon="0.938168">
        <ele>1627.2</ele>
        <time>2012-12-09T10:58:06Z</time>
      </trkpt>
      <trkpt lat="42.901123" lon="0.938238">
        <ele>1631.5</ele>
        <time>2012-12-09T10:58:46Z</time>
      </trkpt>
      <trkpt lat="42.901053" lon="0.938347">
        <ele>1633.4</ele>
        <time>2012-12-09T10:59:11Z</time>
      </trkpt>
      <trkpt lat="42.900971" lon="0.938476">
        <ele>1635.8</ele>
        <time>2012-12-09T11:00:17Z</time>
      </trkpt>
      <trkpt lat="42.900949" lon="0.938572">
        <ele>1640.2</ele>
        <time>2012-12-09T11:00:51Z</time>
      </trkpt>
      <trkpt lat="42.900952" lon="0.938716">
        <ele>1646.4</ele>
        <time>2012-12-09T11:01:37Z</time>
      </trkpt>
      <trkpt lat="42.900918" lon="0.938812">
        <ele>1647.4</ele>
        <time>2012-12-09T11:01:58Z</time>
      </trkpt>
      <trkpt lat="42.900906" lon="0.938892">
        <ele>1649.8</ele>
        <time>2012-12-09T11:02:40Z</time>
      </trkpt>
      <trkpt lat="42.900892" lon="0.938995">
        <ele>1652.2</ele>
        <time>2012-12-09T11:20:08Z</time>
      </trkpt>
      <trkpt lat="42.900832" lon="0.939036">
        <ele>1655.5</ele>
        <time>2012-12-09T11:27:02Z</time>
      </trkpt>
      <trkpt lat="42.900774" lon="0.939122">
        <ele>1657.4</ele>
        <time>2012-12-09T11:27:48Z</time>
      </trkpt>
      <trkpt lat="42.900784" lon="0.939255">
        <ele>1668.0</ele>
        <time>2012-12-09T11:29:46Z</time>
      </trkpt>
      <trkpt lat="42.900763" lon="0.939371">
        <ele>1669.9</ele>
        <time>2012-12-09T11:31:08Z</time>
      </trkpt>
      <trkpt lat="42.900703" lon="0.939476">
        <ele>1668.5</ele>
        <time>2012-12-09T11:31:21Z</time>
      </trkpt>
      <trkpt lat="42.900636" lon="0.939549">
        <ele>1669.9</ele>
        <time>2012-12-09T11:31:40Z</time>
      </trkpt>
      <trkpt lat="42.900603" lon="0.939658">
        <ele>1669.9</ele>
        <time>2012-12-09T11:31:59Z</time>
      </trkpt>
      <trkpt lat="42.900575" lon="0.939789">
        <ele>1668.5</ele>
        <time>2012-12-09T11:32:09Z</time>
      </trkpt>
      <trkpt lat="42.900541" lon="0.939915">
        <ele>1670.4</ele>
        <time>2012-12-09T11:32:21Z</time>
      </trkpt>
      <trkpt lat="42.900523" lon="0.940033">
        <ele>1670.4</ele>
        <time>2012-12-09T11:32:31Z</time>
      </trkpt>
      <trkpt lat="42.900478" lon="0.940154">
        <ele>1672.8</ele>
        <time>2012-12-09T11:32:43Z</time>
      </trkpt>
      <trkpt lat="42.900443" lon="0.940261">
        <ele>1675.7</ele>
        <time>2012-12-09T11:32:55Z</time>
      </trkpt>
      <trkpt lat="42.900389" lon="0.940369">
        <ele>1677.6</ele>
        <time>2012-12-09T11:33:08Z</time>
      </trkpt>
      <trkpt lat="42.900339" lon="0.940469">
        <ele>1679.6</ele>
        <time>2012-12-09T11:33:26Z</time>
      </trkpt>
      <trkpt lat="42.900291" lon="0.940566">
        <ele>1682.0</ele>
        <time>2012-12-09T11:33:40Z</time>
      </trkpt>
      <trkpt lat="42.900233" lon="0.940677">
        <ele>1683.4</ele>
        <time>2012-12-09T11:33:55Z</time>
      </trkpt>
      <trkpt lat="42.900168" lon="0.940772">
        <ele>1684.8</ele>
        <time>2012-12-09T11:34:09Z</time>
      </trkpt>
      <trkpt lat="42.900090" lon="0.940856">
        <ele>1687.2</ele>
        <time>2012-12-09T11:34:24Z</time>
      </trkpt>
      <trkpt lat="42.900041" lon="0.940937">
        <ele>1689.2</ele>
        <time>2012-12-09T11:34:39Z</time>
      </trkpt>
      <trkpt lat="42.899977" lon="0.941033">
        <ele>1690.1</ele>
        <time>2012-12-09T11:34:51Z</time>
      </trkpt>
      <trkpt lat="42.899926" lon="0.941128">
        <ele>1692.5</ele>
        <time>2012-12-09T11:35:09Z</time>
      </trkpt>
      <trkpt lat="42.899922" lon="0.941235">
        <ele>1694.9</ele>
        <time>2012-12-09T11:35:28Z</time>
      </trkpt>
      <trkpt lat="42.899889" lon="0.941349">
        <ele>1697.8</ele>
        <time>2012-12-09T11:35:45Z</time>
      </trkpt>
      <trkpt lat="42.899814" lon="0.941428">
        <ele>1700.2</ele>
        <time>2012-12-09T11:36:03Z</time>
      </trkpt>
      <trkpt lat="42.899736" lon="0.941506">
        <ele>1704.1</ele>
        <time>2012-12-09T11:36:26Z</time>
      </trkpt>
      <trkpt lat="42.899679" lon="0.941588">
        <ele>1707.4</ele>
        <time>2012-12-09T11:36:46Z</time>
      </trkpt>
      <trkpt lat="42.899668" lon="0.941670">
        <ele>1710.3</ele>
        <time>2012-12-09T11:37:34Z</time>
      </trkpt>
      <trkpt lat="42.899638" lon="0.941783">
        <ele>1713.2</ele>
        <time>2012-12-09T11:37:50Z</time>
      </trkpt>
      <trkpt lat="42.899635" lon="0.941891">
        <ele>1716.1</ele>
        <time>2012-12-09T11:38:02Z</time>
      </trkpt>
      <trkpt lat="42.899601" lon="0.942005">
        <ele>1719.5</ele>
        <time>2012-12-09T11:38:15Z</time>
      </trkpt>
      <trkpt lat="42.899566" lon="0.942118">
        <ele>1721.9</ele>
        <time>2012-12-09T11:38:31Z</time>
      </trkpt>
      <trkpt lat="42.899539" lon="0.942215">
        <ele>1721.9</ele>
        <time>2012-12-09T11:39:30Z</time>
      </trkpt>
      <trkpt lat="42.899504" lon="0.942332">
        <ele>1720.9</ele>
        <time>2012-12-09T11:39:41Z</time>
      </trkpt>
      <trkpt lat="42.899481" lon="0.942458">
        <ele>1721.4</ele>
        <time>2012-12-09T11:39:52Z</time>
      </trkpt>
      <trkpt lat="42.899439" lon="0.942566">
        <ele>1719.9</ele>
        <time>2012-12-09T11:40:02Z</time>
      </trkpt>
      <trkpt lat="42.899394" lon="0.942689">
        <ele>1719.9</ele>
        <time>2012-12-09T11:40:12Z</time>
      </trkpt>
      <trkpt lat="42.899363" lon="0.942807">
        <ele>1720.9</ele>
        <time>2012-12-09T11:40:22Z</time>
      </trkpt>
      <trkpt lat="42.899377" lon="0.942936">
        <ele>1722.8</ele>
        <time>2012-12-09T11:40:32Z</time>
      </trkpt>
      <trkpt lat="42.899368" lon="0.943068">
        <ele>1723.3</ele>
        <time>2012-12-09T11:40:42Z</time>
      </trkpt>
      <trkpt lat="42.899393" lon="0.943193">
        <ele>1724.3</ele>
        <time>2012-12-09T11:40:52Z</time>
      </trkpt>
      <trkpt lat="42.899415" lon="0.943319">
        <ele>1724.7</ele>
        <time>2012-12-09T11:41:05Z</time>
        <name>Pic de Serau</name>
      </trkpt>
      <trkpt lat="42.899406" lon="0.943419">
        <ele>1723.3</ele>
        <time>2012-12-09T11:41:22Z</time>
      </trkpt>
      <trkpt lat="42.899431" lon="0.943546">
        <ele>1722.8</ele>
        <time>2012-12-09T11:41:39Z</time>
      </trkpt>
      <trkpt lat="42.899456" lon="0.943665">
        <ele>1719.5</ele>
        <time>2012-12-09T11:42:01Z</time>
      </trkpt>
      <trkpt lat="42.899447" lon="0.943788">
        <ele>1715.1</ele>
        <time>2012-12-09T11:42:12Z</time>
      </trkpt>
      <trkpt lat="42.899461" lon="0.943911">
        <ele>1715.1</ele>
        <time>2012-12-09T11:42:25Z</time>
      </trkpt>
      <trkpt lat="42.899500" lon="0.944017">
        <ele>1716.6</ele>
        <time>2012-12-09T11:43:00Z</time>
      </trkpt>
      <trkpt lat="42.899528" lon="0.944137">
        <ele>1714.7</ele>
        <time>2012-12-09T11:43:26Z</time>
      </trkpt>
      <trkpt lat="42.899503" lon="0.944234">
        <ele>1711.8</ele>
        <time>2012-12-09T11:44:58Z</time>
      </trkpt>
      <trkpt lat="42.899518" lon="0.944182">
        <ele>1713.2</ele>
        <time>2012-12-09T11:46:02Z</time>
      </trkpt>
      <trkpt lat="42.899517" lon="0.944168">
        <ele>1714.2</ele>
        <time>2012-12-09T11:52:25Z</time>
      </trkpt>
      <trkpt lat="42.899524" lon="0.944204">
        <ele>1714.7</ele>
        <time>2012-12-09T12:33:47Z</time>
      </trkpt>
      <trkpt lat="42.899511" lon="0.944297">
        <ele>1711.3</ele>
        <time>2012-12-09T12:34:37Z</time>
      </trkpt>
      <trkpt lat="42.899543" lon="0.944390">
        <ele>1711.3</ele>
        <time>2012-12-09T12:34:51Z</time>
      </trkpt>
      <trkpt lat="42.899578" lon="0.944505">
        <ele>1710.8</ele>
        <time>2012-12-09T12:35:06Z</time>
      </trkpt>
      <trkpt lat="42.899548" lon="0.944658">
        <ele>1708.9</ele>
        <time>2012-12-09T12:35:23Z</time>
      </trkpt>
      <trkpt lat="42.899530" lon="0.944786">
        <ele>1707.9</ele>
        <time>2012-12-09T12:35:41Z</time>
      </trkpt>
      <trkpt lat="42.899529" lon="0.944910">
        <ele>1706.5</ele>
        <time>2012-12-09T12:35:55Z</time>
      </trkpt>
      <trkpt lat="42.899515" lon="0.945039">
        <ele>1703.1</ele>
        <time>2012-12-09T12:36:06Z</time>
      </trkpt>
      <trkpt lat="42.899515" lon="0.945155">
        <ele>1703.1</ele>
        <time>2012-12-09T12:36:21Z</time>
      </trkpt>
      <trkpt lat="42.899494" lon="0.945275">
        <ele>1705.0</ele>
        <time>2012-12-09T12:36:39Z</time>
      </trkpt>
      <trkpt lat="42.899466" lon="0.945405">
        <ele>1707.4</ele>
        <time>2012-12-09T12:37:07Z</time>
      </trkpt>
      <trkpt lat="42.899470" lon="0.945511">
        <ele>1709.8</ele>
        <time>2012-12-09T12:37:30Z</time>
      </trkpt>
      <trkpt lat="42.899488" lon="0.945625">
        <ele>1711.8</ele>
        <time>2012-12-09T12:37:52Z</time>
      </trkpt>
      <trkpt lat="42.899476" lon="0.945765">
        <ele>1713.2</ele>
        <time>2012-12-09T12:38:14Z</time>
      </trkpt>
      <trkpt lat="42.899437" lon="0.945868">
        <ele>1711.3</ele>
        <time>2012-12-09T12:38:29Z</time>
      </trkpt>
      <trkpt lat="42.899423" lon="0.945967">
        <ele>1709.4</ele>
        <time>2012-12-09T12:40:06Z</time>
      </trkpt>
      <trkpt lat="42.899435" lon="0.946093">
        <ele>1708.4</ele>
        <time>2012-12-09T12:42:49Z</time>
      </trkpt>
      <trkpt lat="42.899466" lon="0.946181">
        <ele>1709.4</ele>
        <time>2012-12-09T12:43:06Z</time>
      </trkpt>
      <trkpt lat="42.899500" lon="0.946302">
        <ele>1706.0</ele>
        <time>2012-12-09T12:43:19Z</time>
      </trkpt>
      <trkpt lat="42.899561" lon="0.946399">
        <ele>1705.5</ele>
        <time>2012-12-09T12:43:45Z</time>
      </trkpt>
      <trkpt lat="42.899581" lon="0.946507">
        <ele>1706.5</ele>
        <time>2012-12-09T12:43:59Z</time>
      </trkpt>
      <trkpt lat="42.899607" lon="0.946611">
        <ele>1706.5</ele>
        <time>2012-12-09T12:44:11Z</time>
      </trkpt>
      <trkpt lat="42.899607" lon="0.946719">
        <ele>1706.0</ele>
        <time>2012-12-09T12:44:39Z</time>
      </trkpt>
      <trkpt lat="42.899592" lon="0.946858">
        <ele>1706.5</ele>
        <time>2012-12-09T12:44:54Z</time>
      </trkpt>
      <trkpt lat="42.899595" lon="0.946983">
        <ele>1704.6</ele>
        <time>2012-12-09T12:45:10Z</time>
      </trkpt>
      <trkpt lat="42.899601" lon="0.947128">
        <ele>1702.6</ele>
        <time>2012-12-09T12:45:23Z</time>
      </trkpt>
      <trkpt lat="42.899613" lon="0.947258">
        <ele>1701.7</ele>
        <time>2012-12-09T12:45:36Z</time>
      </trkpt>
      <trkpt lat="42.899617" lon="0.947378">
        <ele>1701.2</ele>
        <time>2012-12-09T12:45:48Z</time>
      </trkpt>
      <trkpt lat="42.899632" lon="0.947501">
        <ele>1701.7</ele>
        <time>2012-12-09T12:46:05Z</time>
      </trkpt>
      <trkpt lat="42.899658" lon="0.947626">
        <ele>1705.0</ele>
        <time>2012-12-09T12:46:24Z</time>
      </trkpt>
      <trkpt lat="42.899672" lon="0.947744">
        <ele>1705.0</ele>
        <time>2012-12-09T12:46:47Z</time>
      </trkpt>
      <trkpt lat="42.899721" lon="0.947857">
        <ele>1704.6</ele>
        <time>2012-12-09T12:46:59Z</time>
      </trkpt>
      <trkpt lat="42.899741" lon="0.947982">
        <ele>1704.1</ele>
        <time>2012-12-09T12:47:11Z</time>
      </trkpt>
      <trkpt lat="42.899778" lon="0.948097">
        <ele>1705.0</ele>
        <time>2012-12-09T12:47:25Z</time>
      </trkpt>
      <trkpt lat="42.899766" lon="0.948224">
        <ele>1705.5</ele>
        <time>2012-12-09T12:47:38Z</time>
      </trkpt>
      <trkpt lat="42.899757" lon="0.948331">
        <ele>1704.1</ele>
        <time>2012-12-09T12:47:53Z</time>
      </trkpt>
      <trkpt lat="42.899747" lon="0.948453">
        <ele>1701.7</ele>
        <time>2012-12-09T12:48:13Z</time>
      </trkpt>
      <trkpt lat="42.899735" lon="0.948576">
        <ele>1700.7</ele>
        <time>2012-12-09T12:48:24Z</time>
      </trkpt>
      <trkpt lat="42.899738" lon="0.948692">
        <ele>1701.2</ele>
        <time>2012-12-09T12:48:34Z</time>
      </trkpt>
      <trkpt lat="42.899724" lon="0.948819">
        <ele>1700.2</ele>
        <time>2012-12-09T12:48:45Z</time>
      </trkpt>
      <trkpt lat="42.899693" lon="0.948917">
        <ele>1701.7</ele>
        <time>2012-12-09T12:49:04Z</time>
      </trkpt>
      <trkpt lat="42.899654" lon="0.949033">
        <ele>1700.2</ele>
        <time>2012-12-09T12:49:16Z</time>
      </trkpt>
      <trkpt lat="42.899674" lon="0.949147">
        <ele>1696.4</ele>
        <time>2012-12-09T12:49:32Z</time>
      </trkpt>
      <trkpt lat="42.899677" lon="0.949272">
        <ele>1695.4</ele>
        <time>2012-12-09T12:49:43Z</time>
      </trkpt>
      <trkpt lat="42.899679" lon="0.949405">
        <ele>1695.4</ele>
        <time>2012-12-09T12:49:55Z</time>
      </trkpt>
      <trkpt lat="42.899687" lon="0.949523">
        <ele>1694.5</ele>
        <time>2012-12-09T12:50:07Z</time>
      </trkpt>
      <trkpt lat="42.899705" lon="0.949654">
        <ele>1694.0</ele>
        <time>2012-12-09T12:50:20Z</time>
      </trkpt>
      <trkpt lat="42.899712" lon="0.949784">
        <ele>1694.5</ele>
        <time>2012-12-09T12:50:31Z</time>
      </trkpt>
      <trkpt lat="42.899729" lon="0.949906">
        <ele>1694.9</ele>
        <time>2012-12-09T12:50:42Z</time>
      </trkpt>
      <trkpt lat="42.899740" lon="0.950039">
        <ele>1695.9</ele>
        <time>2012-12-09T12:50:54Z</time>
      </trkpt>
      <trkpt lat="42.899777" lon="0.950156">
        <ele>1697.3</ele>
        <time>2012-12-09T12:51:09Z</time>
      </trkpt>
      <trkpt lat="42.899805" lon="0.950282">
        <ele>1698.8</ele>
        <time>2012-12-09T12:51:23Z</time>
      </trkpt>
      <trkpt lat="42.899819" lon="0.950404">
        <ele>1699.8</ele>
        <time>2012-12-09T12:51:38Z</time>
      </trkpt>
      <trkpt lat="42.899849" lon="0.950517">
        <ele>1701.2</ele>
        <time>2012-12-09T12:51:54Z</time>
      </trkpt>
      <trkpt lat="42.899864" lon="0.950646">
        <ele>1702.6</ele>
        <time>2012-12-09T12:52:10Z</time>
      </trkpt>
      <trkpt lat="42.899894" lon="0.950757">
        <ele>1703.6</ele>
        <time>2012-12-09T12:52:25Z</time>
      </trkpt>
      <trkpt lat="42.899924" lon="0.950873">
        <ele>1704.6</ele>
        <time>2012-12-09T12:52:39Z</time>
      </trkpt>
      <trkpt lat="42.899919" lon="0.950907">
        <ele>1704.1</ele>
        <time>2012-12-09T12:54:43Z</time>
      </trkpt>
      <trkpt lat="42.899926" lon="0.950860">
        <ele>1704.1</ele>
        <time>2012-12-09T12:55:32Z</time>
        <name>Pic Mardans</name>
      </trkpt>
      <trkpt lat="42.899951" lon="0.950836">
        <ele>1704.6</ele>
        <time>2012-12-09T12:56:55Z</time>
      </trkpt>
      <trkpt lat="42.899995" lon="0.950804">
        <ele>1702.6</ele>
        <time>2012-12-09T12:58:00Z</time>
      </trkpt>
      <trkpt lat="42.900064" lon="0.950698">
        <ele>1701.2</ele>
        <time>2012-12-09T12:58:13Z</time>
      </trkpt>
      <trkpt lat="42.900132" lon="0.950614">
        <ele>1698.8</ele>
        <time>2012-12-09T12:58:30Z</time>
      </trkpt>
      <trkpt lat="42.900215" lon="0.950550">
        <ele>1694.0</ele>
        <time>2012-12-09T12:58:45Z</time>
      </trkpt>
      <trkpt lat="42.900262" lon="0.950444">
        <ele>1689.7</ele>
        <time>2012-12-09T12:58:55Z</time>
      </trkpt>
      <trkpt lat="42.900320" lon="0.950365">
        <ele>1685.3</ele>
        <time>2012-12-09T12:59:09Z</time>
      </trkpt>
      <trkpt lat="42.900375" lon="0.950280">
        <ele>1681.5</ele>
        <time>2012-12-09T12:59:18Z</time>
      </trkpt>
      <trkpt lat="42.900461" lon="0.950223">
        <ele>1676.7</ele>
        <time>2012-12-09T12:59:31Z</time>
      </trkpt>
      <trkpt lat="42.900524" lon="0.950144">
        <ele>1671.4</ele>
        <time>2012-12-09T12:59:48Z</time>
      </trkpt>
      <trkpt lat="42.900599" lon="0.950104">
        <ele>1666.6</ele>
        <time>2012-12-09T13:00:03Z</time>
      </trkpt>
      <trkpt lat="42.900686" lon="0.950052">
        <ele>1660.8</ele>
        <time>2012-12-09T13:00:19Z</time>
      </trkpt>
      <trkpt lat="42.900760" lon="0.950092">
        <ele>1656.0</ele>
        <time>2012-12-09T13:00:39Z</time>
      </trkpt>
      <trkpt lat="42.900851" lon="0.950097">
        <ele>1648.8</ele>
        <time>2012-12-09T13:01:03Z</time>
      </trkpt>
      <trkpt lat="42.900944" lon="0.950114">
        <ele>1642.1</ele>
        <time>2012-12-09T13:01:30Z</time>
      </trkpt>
      <trkpt lat="42.901034" lon="0.950086">
        <ele>1635.8</ele>
        <time>2012-12-09T13:01:48Z</time>
      </trkpt>
      <trkpt lat="42.901119" lon="0.950054">
        <ele>1631.0</ele>
        <time>2012-12-09T13:02:05Z</time>
      </trkpt>
      <trkpt lat="42.901204" lon="0.950054">
        <ele>1625.2</ele>
        <time>2012-12-09T13:02:17Z</time>
      </trkpt>
      <trkpt lat="42.901290" lon="0.950048">
        <ele>1620.0</ele>
        <time>2012-12-09T13:02:28Z</time>
      </trkpt>
      <trkpt lat="42.901377" lon="0.950042">
        <ele>1612.8</ele>
        <time>2012-12-09T13:02:48Z</time>
      </trkpt>
      <trkpt lat="42.901467" lon="0.950040">
        <ele>1606.5</ele>
        <time>2012-12-09T13:03:01Z</time>
      </trkpt>
      <trkpt lat="42.901566" lon="0.950039">
        <ele>1600.2</ele>
        <time>2012-12-09T13:03:16Z</time>
      </trkpt>
      <trkpt lat="42.901653" lon="0.950040">
        <ele>1595.0</ele>
        <time>2012-12-09T13:03:27Z</time>
      </trkpt>
      <trkpt lat="42.901731" lon="0.950035">
        <ele>1589.7</ele>
        <time>2012-12-09T13:03:36Z</time>
      </trkpt>
      <trkpt lat="42.901802" lon="0.950069">
        <ele>1584.9</ele>
        <time>2012-12-09T13:03:47Z</time>
      </trkpt>
      <trkpt lat="42.901873" lon="0.950128">
        <ele>1582.5</ele>
        <time>2012-12-09T13:03:56Z</time>
      </trkpt>
      <trkpt lat="42.901967" lon="0.950156">
        <ele>1576.7</ele>
        <time>2012-12-09T13:04:08Z</time>
      </trkpt>
      <trkpt lat="42.902063" lon="0.950181">
        <ele>1571.9</ele>
        <time>2012-12-09T13:04:19Z</time>
      </trkpt>
      <trkpt lat="42.902153" lon="0.950190">
        <ele>1568.1</ele>
        <time>2012-12-09T13:04:32Z</time>
      </trkpt>
      <trkpt lat="42.902173" lon="0.950192">
        <ele>1567.6</ele>
        <time>2012-12-09T13:10:52Z</time>
      </trkpt>
      <trkpt lat="42.902234" lon="0.950252">
        <ele>1565.6</ele>
        <time>2012-12-09T13:11:20Z</time>
      </trkpt>
      <trkpt lat="42.902329" lon="0.950269">
        <ele>1564.7</ele>
        <time>2012-12-09T13:11:31Z</time>
      </trkpt>
      <trkpt lat="42.902426" lon="0.950272">
        <ele>1559.4</ele>
        <time>2012-12-09T13:11:44Z</time>
      </trkpt>
      <trkpt lat="42.902531" lon="0.950269">
        <ele>1557.0</ele>
        <time>2012-12-09T13:12:09Z</time>
      </trkpt>
      <trkpt lat="42.902623" lon="0.950308">
        <ele>1552.2</ele>
        <time>2012-12-09T13:12:20Z</time>
      </trkpt>
      <trkpt lat="42.902712" lon="0.950266">
        <ele>1548.8</ele>
        <time>2012-12-09T13:12:28Z</time>
      </trkpt>
      <trkpt lat="42.902797" lon="0.950232">
        <ele>1545.0</ele>
        <time>2012-12-09T13:12:35Z</time>
      </trkpt>
      <trkpt lat="42.902897" lon="0.950245">
        <ele>1539.7</ele>
        <time>2012-12-09T13:12:48Z</time>
      </trkpt>
      <trkpt lat="42.903001" lon="0.950284">
        <ele>1536.3</ele>
        <time>2012-12-09T13:12:58Z</time>
      </trkpt>
      <trkpt lat="42.903092" lon="0.950261">
        <ele>1531.5</ele>
        <time>2012-12-09T13:13:07Z</time>
      </trkpt>
      <trkpt lat="42.903165" lon="0.950342">
        <ele>1526.2</ele>
        <time>2012-12-09T13:13:17Z</time>
      </trkpt>
      <trkpt lat="42.903244" lon="0.950435">
        <ele>1522.9</ele>
        <time>2012-12-09T13:13:23Z</time>
      </trkpt>
      <trkpt lat="42.903319" lon="0.950529">
        <ele>1520.9</ele>
        <time>2012-12-09T13:13:33Z</time>
      </trkpt>
      <trkpt lat="42.903339" lon="0.950630">
        <ele>1522.9</ele>
        <time>2012-12-09T13:13:44Z</time>
      </trkpt>
      <trkpt lat="42.903438" lon="0.950618">
        <ele>1520.0</ele>
        <time>2012-12-09T13:13:58Z</time>
      </trkpt>
      <trkpt lat="42.903541" lon="0.950628">
        <ele>1517.1</ele>
        <time>2012-12-09T13:14:28Z</time>
      </trkpt>
      <trkpt lat="42.903647" lon="0.950630">
        <ele>1511.8</ele>
        <time>2012-12-09T13:14:39Z</time>
      </trkpt>
      <trkpt lat="42.903747" lon="0.950619">
        <ele>1506.5</ele>
        <time>2012-12-09T13:14:48Z</time>
      </trkpt>
      <trkpt lat="42.903843" lon="0.950620">
        <ele>1502.2</ele>
        <time>2012-12-09T13:14:55Z</time>
      </trkpt>
      <trkpt lat="42.903935" lon="0.950705">
        <ele>1499.3</ele>
        <time>2012-12-09T13:15:03Z</time>
      </trkpt>
      <trkpt lat="42.904024" lon="0.950739">
        <ele>1496.4</ele>
        <time>2012-12-09T13:15:09Z</time>
      </trkpt>
      <trkpt lat="42.904114" lon="0.950802">
        <ele>1493.6</ele>
        <time>2012-12-09T13:15:16Z</time>
      </trkpt>
      <trkpt lat="42.904207" lon="0.950823">
        <ele>1491.6</ele>
        <time>2012-12-09T13:15:28Z</time>
      </trkpt>
      <trkpt lat="42.904294" lon="0.950792">
        <ele>1486.8</ele>
        <time>2012-12-09T13:15:37Z</time>
      </trkpt>
      <trkpt lat="42.904370" lon="0.950810">
        <ele>1483.4</ele>
        <time>2012-12-09T13:16:20Z</time>
      </trkpt>
      <trkpt lat="42.904466" lon="0.950801">
        <ele>1478.7</ele>
        <time>2012-12-09T13:16:31Z</time>
      </trkpt>
      <trkpt lat="42.904556" lon="0.950772">
        <ele>1471.9</ele>
        <time>2012-12-09T13:16:44Z</time>
      </trkpt>
      <trkpt lat="42.904660" lon="0.950731">
        <ele>1466.2</ele>
        <time>2012-12-09T13:16:55Z</time>
      </trkpt>
      <trkpt lat="42.904758" lon="0.950695">
        <ele>1460.9</ele>
        <time>2012-12-09T13:17:03Z</time>
      </trkpt>
      <trkpt lat="42.904849" lon="0.950697">
        <ele>1455.6</ele>
        <time>2012-12-09T13:17:12Z</time>
      </trkpt>
      <trkpt lat="42.904948" lon="0.950681">
        <ele>1450.8</ele>
        <time>2012-12-09T13:17:20Z</time>
      </trkpt>
      <trkpt lat="42.905049" lon="0.950672">
        <ele>1446.9</ele>
        <time>2012-12-09T13:17:30Z</time>
      </trkpt>
      <trkpt lat="42.905147" lon="0.950662">
        <ele>1442.6</ele>
        <time>2012-12-09T13:17:40Z</time>
      </trkpt>
      <trkpt lat="42.905232" lon="0.950654">
        <ele>1439.2</ele>
        <time>2012-12-09T13:17:47Z</time>
      </trkpt>
      <trkpt lat="42.905340" lon="0.950657">
        <ele>1434.4</ele>
        <time>2012-12-09T13:18:00Z</time>
      </trkpt>
      <trkpt lat="42.905446" lon="0.950652">
        <ele>1429.6</ele>
        <time>2012-12-09T13:18:07Z</time>
      </trkpt>
      <trkpt lat="42.905540" lon="0.950642">
        <ele>1424.8</ele>
        <time>2012-12-09T13:18:18Z</time>
      </trkpt>
      <trkpt lat="42.905633" lon="0.950623">
        <ele>1420.5</ele>
        <time>2012-12-09T13:18:25Z</time>
      </trkpt>
      <trkpt lat="42.905724" lon="0.950631">
        <ele>1415.7</ele>
        <time>2012-12-09T13:18:37Z</time>
      </trkpt>
      <trkpt lat="42.905800" lon="0.950569">
        <ele>1411.8</ele>
        <time>2012-12-09T13:18:58Z</time>
      </trkpt>
      <trkpt lat="42.905868" lon="0.950485">
        <ele>1408.5</ele>
        <time>2012-12-09T13:19:11Z</time>
      </trkpt>
      <trkpt lat="42.905902" lon="0.950508">
        <ele>1406.6</ele>
        <time>2012-12-09T13:22:14Z</time>
      </trkpt>
      <trkpt lat="42.905928" lon="0.950456">
        <ele>1407.5</ele>
        <time>2012-12-09T13:24:05Z</time>
      </trkpt>
      <trkpt lat="42.905963" lon="0.950566">
        <ele>1408.9</ele>
        <time>2012-12-09T13:27:53Z</time>
      </trkpt>
      <trkpt lat="42.906058" lon="0.950638">
        <ele>1408.9</ele>
        <time>2012-12-09T13:28:07Z</time>
        <name>Piste Grande Neouere</name>
      </trkpt>
      <trkpt lat="42.906165" lon="0.950647">
        <ele>1406.6</ele>
        <time>2012-12-09T13:28:26Z</time>
      </trkpt>
      <trkpt lat="42.906279" lon="0.950671">
        <ele>1402.7</ele>
        <time>2012-12-09T13:28:56Z</time>
      </trkpt>
      <trkpt lat="42.906419" lon="0.950721">
        <ele>1400.3</ele>
        <time>2012-12-09T13:29:13Z</time>
      </trkpt>
      <trkpt lat="42.906570" lon="0.950767">
        <ele>1397.9</ele>
        <time>2012-12-09T13:29:42Z</time>
      </trkpt>
      <trkpt lat="42.906651" lon="0.950664">
        <ele>1394.1</ele>
        <time>2012-12-09T13:30:07Z</time>
      </trkpt>
      <trkpt lat="42.906802" lon="0.950586">
        <ele>1389.2</ele>
        <time>2012-12-09T13:30:31Z</time>
      </trkpt>
      <trkpt lat="42.906844" lon="0.950459">
        <ele>1381.6</ele>
        <time>2012-12-09T13:30:57Z</time>
      </trkpt>
      <trkpt lat="42.906998" lon="0.950513">
        <ele>1376.8</ele>
        <time>2012-12-09T13:31:15Z</time>
      </trkpt>
      <trkpt lat="42.907079" lon="0.950646">
        <ele>1372.9</ele>
        <time>2012-12-09T13:31:48Z</time>
      </trkpt>
      <trkpt lat="42.907204" lon="0.950614">
        <ele>1365.2</ele>
        <time>2012-12-09T13:32:32Z</time>
      </trkpt>
      <trkpt lat="42.907366" lon="0.950500">
        <ele>1360.9</ele>
        <time>2012-12-09T13:32:55Z</time>
      </trkpt>
      <trkpt lat="42.907505" lon="0.950519">
        <ele>1356.1</ele>
        <time>2012-12-09T13:33:10Z</time>
      </trkpt>
      <trkpt lat="42.907703" lon="0.950511">
        <ele>1349.8</ele>
        <time>2012-12-09T13:33:32Z</time>
      </trkpt>
      <trkpt lat="42.907860" lon="0.950409">
        <ele>1344.1</ele>
        <time>2012-12-09T13:33:49Z</time>
      </trkpt>
      <trkpt lat="42.907965" lon="0.950362">
        <ele>1336.8</ele>
        <time>2012-12-09T13:34:09Z</time>
      </trkpt>
      <trkpt lat="42.908097" lon="0.950287">
        <ele>1331.1</ele>
        <time>2012-12-09T13:34:26Z</time>
      </trkpt>
      <trkpt lat="42.908255" lon="0.950282">
        <ele>1328.2</ele>
        <time>2012-12-09T13:34:43Z</time>
      </trkpt>
      <trkpt lat="42.908379" lon="0.950252">
        <ele>1325.3</ele>
        <time>2012-12-09T13:35:00Z</time>
      </trkpt>
      <trkpt lat="42.908567" lon="0.950178">
        <ele>1321.5</ele>
        <time>2012-12-09T13:35:18Z</time>
      </trkpt>
      <trkpt lat="42.908742" lon="0.950193">
        <ele>1319.1</ele>
        <time>2012-12-09T13:36:27Z</time>
      </trkpt>
      <trkpt lat="42.908881" lon="0.950240">
        <ele>1314.7</ele>
        <time>2012-12-09T13:36:46Z</time>
      </trkpt>
      <trkpt lat="42.909012" lon="0.950313">
        <ele>1310.9</ele>
        <time>2012-12-09T13:37:02Z</time>
      </trkpt>
      <trkpt lat="42.909114" lon="0.950357">
        <ele>1309.4</ele>
        <time>2012-12-09T13:38:19Z</time>
      </trkpt>
      <trkpt lat="42.909205" lon="0.950418">
        <ele>1308.0</ele>
        <time>2012-12-09T13:38:56Z</time>
      </trkpt>
      <trkpt lat="42.909348" lon="0.950412">
        <ele>1297.9</ele>
        <time>2012-12-09T13:39:22Z</time>
      </trkpt>
      <trkpt lat="42.909516" lon="0.950475">
        <ele>1285.4</ele>
        <time>2012-12-09T13:39:52Z</time>
      </trkpt>
      <trkpt lat="42.909683" lon="0.950541">
        <ele>1275.3</ele>
        <time>2012-12-09T13:40:20Z</time>
      </trkpt>
      <trkpt lat="42.909818" lon="0.950528">
        <ele>1267.2</ele>
        <time>2012-12-09T13:40:47Z</time>
      </trkpt>
      <trkpt lat="42.909984" lon="0.950538">
        <ele>1255.1</ele>
        <time>2012-12-09T13:41:10Z</time>
      </trkpt>
      <trkpt lat="42.910123" lon="0.950516">
        <ele>1245.0</ele>
        <time>2012-12-09T13:41:36Z</time>
      </trkpt>
      <trkpt lat="42.910225" lon="0.950434">
        <ele>1238.8</ele>
        <time>2012-12-09T13:41:58Z</time>
      </trkpt>
      <trkpt lat="42.910333" lon="0.950439">
        <ele>1234.0</ele>
        <time>2012-12-09T13:42:23Z</time>
      </trkpt>
      <trkpt lat="42.910365" lon="0.950269">
        <ele>1232.6</ele>
        <time>2012-12-09T13:45:54Z</time>
      </trkpt>
      <trkpt lat="42.910464" lon="0.950274">
        <ele>1226.8</ele>
        <time>2012-12-09T13:46:13Z</time>
      </trkpt>
      <trkpt lat="42.910617" lon="0.950331">
        <ele>1219.1</ele>
        <time>2012-12-09T13:46:28Z</time>
      </trkpt>
      <trkpt lat="42.910747" lon="0.950332">
        <ele>1209.5</ele>
        <time>2012-12-09T13:46:44Z</time>
      </trkpt>
      <trkpt lat="42.910877" lon="0.950345">
        <ele>1201.3</ele>
        <time>2012-12-09T13:47:07Z</time>
      </trkpt>
      <trkpt lat="42.911057" lon="0.950310">
        <ele>1193.1</ele>
        <time>2012-12-09T13:47:35Z</time>
      </trkpt>
      <trkpt lat="42.911170" lon="0.950319">
        <ele>1190.7</ele>
        <time>2012-12-09T13:51:23Z</time>
      </trkpt>
      <trkpt lat="42.911299" lon="0.950297">
        <ele>1183.0</ele>
        <time>2012-12-09T13:51:38Z</time>
      </trkpt>
      <trkpt lat="42.911432" lon="0.950214">
        <ele>1175.3</ele>
        <time>2012-12-09T13:52:02Z</time>
      </trkpt>
      <trkpt lat="42.911596" lon="0.950083">
        <ele>1168.1</ele>
        <time>2012-12-09T13:52:27Z</time>
      </trkpt>
      <trkpt lat="42.911753" lon="0.950032">
        <ele>1159.5</ele>
        <time>2012-12-09T13:52:56Z</time>
      </trkpt>
      <trkpt lat="42.911848" lon="0.950135">
        <ele>1156.6</ele>
        <time>2012-12-09T13:53:16Z</time>
      </trkpt>
      <trkpt lat="42.911949" lon="0.950221">
        <ele>1152.3</ele>
        <time>2012-12-09T13:53:30Z</time>
      </trkpt>
      <trkpt lat="42.912054" lon="0.950327">
        <ele>1147.5</ele>
        <time>2012-12-09T13:53:48Z</time>
      </trkpt>
      <trkpt lat="42.912211" lon="0.950517">
        <ele>1116.4</ele>
        <time>2012-12-09T13:54:10Z</time>
      </trkpt>
      <trkpt lat="42.912358" lon="0.950650">
        <ele>1109.5</ele>
        <time>2012-12-09T13:54:26Z</time>
      </trkpt>
      <trkpt lat="42.912465" lon="0.950810">
        <ele>1104.5</ele>
        <time>2012-12-09T13:54:39Z</time>
      </trkpt>
      <trkpt lat="42.912583" lon="0.950917">
        <ele>1097.2</ele>
        <time>2012-12-09T13:54:52Z</time>
      </trkpt>
      <trkpt lat="42.912739" lon="0.951077">
        <ele>1087.2</ele>
        <time>2012-12-09T13:55:09Z</time>
      </trkpt>
      <trkpt lat="42.912886" lon="0.951264">
        <ele>1078.8</ele>
        <time>2012-12-09T13:55:23Z</time>
      </trkpt>
      <trkpt lat="42.913059" lon="0.951408">
        <ele>1070.2</ele>
        <time>2012-12-09T14:05:15Z</time>
      </trkpt>
      <trkpt lat="42.913181" lon="0.951557">
        <ele>1065.1</ele>
        <time>2012-12-09T14:05:25Z</time>
      </trkpt>
      <trkpt lat="42.913314" lon="0.951723">
        <ele>1059.8</ele>
        <time>2012-12-09T14:05:35Z</time>
      </trkpt>
      <trkpt lat="42.913472" lon="0.951872">
        <ele>1054.0</ele>
        <time>2012-12-09T14:05:46Z</time>
      </trkpt>
      <trkpt lat="42.913560" lon="0.951944">
        <ele>1051.2</ele>
        <time>2012-12-09T14:05:55Z</time>
      </trkpt>
      <trkpt lat="42.913671" lon="0.952003">
        <ele>1047.9</ele>
        <time>2012-12-09T14:06:04Z</time>
      </trkpt>
      <trkpt lat="42.913777" lon="0.952030">
        <ele>1044.8</ele>
        <time>2012-12-09T14:06:14Z</time>
      </trkpt>
      <trkpt lat="42.913908" lon="0.952073">
        <ele>1041.2</ele>
        <time>2012-12-09T14:06:24Z</time>
      </trkpt>
      <trkpt lat="42.914022" lon="0.952111">
        <ele>1038.3</ele>
        <time>2012-12-09T14:06:33Z</time>
      </trkpt>
      <trkpt lat="42.914141" lon="0.952165">
        <ele>1035.8</ele>
        <time>2012-12-09T14:06:42Z</time>
      </trkpt>
      <trkpt lat="42.914355" lon="0.952222">
        <ele>1029.1</ele>
        <time>2012-12-09T14:06:53Z</time>
      </trkpt>
      <trkpt lat="42.914490" lon="0.952255">
        <ele>1024.9</ele>
        <time>2012-12-09T14:07:39Z</time>
      </trkpt>
      <trkpt lat="42.914642" lon="0.952313">
        <ele>1020.2</ele>
        <time>2012-12-09T14:07:51Z</time>
      </trkpt>
      <trkpt lat="42.914789" lon="0.952380">
        <ele>1016.1</ele>
        <time>2012-12-09T14:08:01Z</time>
      </trkpt>
      <trkpt lat="42.914917" lon="0.952414">
        <ele>1012.1</ele>
        <time>2012-12-09T14:08:10Z</time>
      </trkpt>
      <trkpt lat="42.915058" lon="0.952480">
        <ele>1007.5</ele>
        <time>2012-12-09T14:08:18Z</time>
      </trkpt>
      <trkpt lat="42.915150" lon="0.952547">
        <ele>1004.1</ele>
        <time>2012-12-09T14:08:26Z</time>
      </trkpt>
      <trkpt lat="42.915254" lon="0.952639">
        <ele>1000.7</ele>
        <time>2012-12-09T14:08:36Z</time>
      </trkpt>
      <trkpt lat="42.915339" lon="0.952739">
        <ele>998.6</ele>
        <time>2012-12-09T14:08:44Z</time>
      </trkpt>
      <trkpt lat="42.915425" lon="0.952831">
        <ele>996.8</ele>
        <time>2012-12-09T14:08:53Z</time>
      </trkpt>
      <trkpt lat="42.915517" lon="0.952940">
        <ele>995.3</ele>
        <time>2012-12-09T14:09:04Z</time>
      </trkpt>
      <trkpt lat="42.915584" lon="0.953023">
        <ele>994.7</ele>
        <time>2012-12-09T14:09:14Z</time>
      </trkpt>
      <trkpt lat="42.915700" lon="0.953115">
        <ele>992.6</ele>
        <time>2012-12-09T14:09:23Z</time>
      </trkpt>
      <trkpt lat="42.915773" lon="0.953223">
        <ele>992.7</ele>
        <time>2012-12-09T14:09:32Z</time>
      </trkpt>
      <trkpt lat="42.915841" lon="0.953332">
        <ele>993.9</ele>
        <time>2012-12-09T14:09:40Z</time>
      </trkpt>
      <trkpt lat="42.915926" lon="0.953407">
        <ele>992.6</ele>
        <time>2012-12-09T14:09:48Z</time>
      </trkpt>
      <trkpt lat="42.915994" lon="0.953471">
        <ele>991.9</ele>
        <time>2012-12-09T14:09:57Z</time>
      </trkpt>
      <trkpt lat="42.916042" lon="0.953533">
        <ele>991.7</ele>
        <time>2012-12-09T14:10:06Z</time>
      </trkpt>
      <trkpt lat="42.916112" lon="0.953590">
        <ele>990.9</ele>
        <time>2012-12-09T14:10:14Z</time>
      </trkpt>
      <trkpt lat="42.916206" lon="0.953585">
        <ele>1008.1</ele>
        <time>2012-12-09T14:10:24Z</time>
        <name>Routes forestieres</name>
      </trkpt>
      <trkpt lat="42.916244" lon="0.953475">
        <ele>1006.2</ele>
        <time>2012-12-09T14:10:35Z</time>
      </trkpt>
      <trkpt lat="42.916188" lon="0.953353">
        <ele>1005.7</ele>
        <time>2012-12-09T14:10:46Z</time>
      </trkpt>
      <trkpt lat="42.916128" lon="0.953222">
        <ele>1005.2</ele>
        <time>2012-12-09T14:10:58Z</time>
      </trkpt>
      <trkpt lat="42.916063" lon="0.953062">
        <ele>1004.2</ele>
        <time>2012-12-09T14:11:18Z</time>
      </trkpt>
      <trkpt lat="42.916017" lon="0.952934">
        <ele>1002.8</ele>
        <time>2012-12-09T14:11:28Z</time>
      </trkpt>
      <trkpt lat="42.915961" lon="0.952784">
        <ele>1001.8</ele>
        <time>2012-12-09T14:11:39Z</time>
      </trkpt>
      <trkpt lat="42.915916" lon="0.952666">
        <ele>1000.9</ele>
        <time>2012-12-09T14:11:48Z</time>
      </trkpt>
      <trkpt lat="42.915877" lon="0.952530">
        <ele>999.4</ele>
        <time>2012-12-09T14:11:58Z</time>
      </trkpt>
      <trkpt lat="42.915840" lon="0.952397">
        <ele>998.0</ele>
        <time>2012-12-09T14:12:07Z</time>
      </trkpt>
      <trkpt lat="42.915792" lon="0.952259">
        <ele>997.5</ele>
        <time>2012-12-09T14:12:16Z</time>
      </trkpt>
      <trkpt lat="42.915746" lon="0.952116">
        <ele>996.1</ele>
        <time>2012-12-09T14:12:25Z</time>
      </trkpt>
      <trkpt lat="42.915699" lon="0.951993">
        <ele>995.1</ele>
        <time>2012-12-09T14:12:33Z</time>
      </trkpt>
      <trkpt lat="42.915636" lon="0.951879">
        <ele>994.6</ele>
        <time>2012-12-09T14:12:41Z</time>
      </trkpt>
      <trkpt lat="42.915568" lon="0.951772">
        <ele>993.2</ele>
        <time>2012-12-09T14:12:49Z</time>
      </trkpt>
      <trkpt lat="42.915516" lon="0.951641">
        <ele>992.7</ele>
        <time>2012-12-09T14:13:07Z</time>
      </trkpt>
      <trkpt lat="42.915437" lon="0.951533">
        <ele>991.3</ele>
        <time>2012-12-09T14:13:16Z</time>
      </trkpt>
      <trkpt lat="42.915364" lon="0.951437">
        <ele>990.8</ele>
        <time>2012-12-09T14:13:24Z</time>
      </trkpt>
      <trkpt lat="42.915291" lon="0.951335">
        <ele>990.3</ele>
        <time>2012-12-09T14:13:32Z</time>
      </trkpt>
      <trkpt lat="42.915209" lon="0.951240">
        <ele>988.8</ele>
        <time>2012-12-09T14:13:40Z</time>
      </trkpt>
      <trkpt lat="42.915120" lon="0.951159">
        <ele>987.4</ele>
        <time>2012-12-09T14:13:48Z</time>
      </trkpt>
      <trkpt lat="42.915036" lon="0.951069">
        <ele>986.9</ele>
        <time>2012-12-09T14:13:56Z</time>
      </trkpt>
      <trkpt lat="42.914959" lon="0.950989">
        <ele>986.0</ele>
        <time>2012-12-09T14:14:03Z</time>
      </trkpt>
      <trkpt lat="42.914890" lon="0.950904">
        <ele>985.0</ele>
        <time>2012-12-09T14:14:10Z</time>
      </trkpt>
      <trkpt lat="42.914819" lon="0.950796">
        <ele>984.5</ele>
        <time>2012-12-09T14:14:18Z</time>
      </trkpt>
      <trkpt lat="42.914761" lon="0.950659">
        <ele>983.1</ele>
        <time>2012-12-09T14:14:26Z</time>
      </trkpt>
      <trkpt lat="42.914731" lon="0.950523">
        <ele>982.6</ele>
        <time>2012-12-09T14:14:35Z</time>
      </trkpt>
      <trkpt lat="42.914697" lon="0.950365">
        <ele>981.2</ele>
        <time>2012-12-09T14:14:44Z</time>
      </trkpt>
      <trkpt lat="42.914696" lon="0.950206">
        <ele>979.7</ele>
        <time>2012-12-09T14:15:00Z</time>
      </trkpt>
      <trkpt lat="42.914667" lon="0.950070">
        <ele>979.7</ele>
        <time>2012-12-09T14:15:07Z</time>
      </trkpt>
      <trkpt lat="42.914666" lon="0.949928">
        <ele>978.3</ele>
        <time>2012-12-09T14:15:16Z</time>
      </trkpt>
      <trkpt lat="42.914664" lon="0.949759">
        <ele>977.3</ele>
        <time>2012-12-09T14:15:24Z</time>
      </trkpt>
      <trkpt lat="42.914668" lon="0.949594">
        <ele>975.9</ele>
        <time>2012-12-09T14:15:33Z</time>
      </trkpt>
      <trkpt lat="42.914702" lon="0.949428">
        <ele>974.9</ele>
        <time>2012-12-09T14:15:42Z</time>
      </trkpt>
      <trkpt lat="42.914737" lon="0.949281">
        <ele>973.5</ele>
        <time>2012-12-09T14:15:51Z</time>
      </trkpt>
      <trkpt lat="42.914796" lon="0.949179">
        <ele>972.0</ele>
        <time>2012-12-09T14:15:58Z</time>
      </trkpt>
      <trkpt lat="42.914804" lon="0.949035">
        <ele>971.5</ele>
        <time>2012-12-09T14:16:05Z</time>
      </trkpt>
      <trkpt lat="42.914842" lon="0.948918">
        <ele>970.6</ele>
        <time>2012-12-09T14:16:13Z</time>
      </trkpt>
      <trkpt lat="42.914853" lon="0.948749">
        <ele>968.7</ele>
        <time>2012-12-09T14:16:22Z</time>
      </trkpt>
      <trkpt lat="42.914857" lon="0.948551">
        <ele>968.7</ele>
        <time>2012-12-09T14:16:32Z</time>
      </trkpt>
      <trkpt lat="42.914897" lon="0.948409">
        <ele>967.7</ele>
        <time>2012-12-09T14:16:41Z</time>
      </trkpt>
      <trkpt lat="42.914925" lon="0.948293">
        <ele>966.7</ele>
        <time>2012-12-09T14:16:49Z</time>
      </trkpt>
      <trkpt lat="42.914949" lon="0.948153">
        <ele>965.8</ele>
        <time>2012-12-09T14:16:57Z</time>
      </trkpt>
      <trkpt lat="42.914977" lon="0.948008">
        <ele>964.8</ele>
        <time>2012-12-09T14:17:06Z</time>
      </trkpt>
      <trkpt lat="42.915026" lon="0.947883">
        <ele>963.4</ele>
        <time>2012-12-09T14:17:14Z</time>
      </trkpt>
      <trkpt lat="42.915046" lon="0.947695">
        <ele>962.9</ele>
        <time>2012-12-09T14:17:30Z</time>
      </trkpt>
      <trkpt lat="42.915101" lon="0.947569">
        <ele>961.5</ele>
        <time>2012-12-09T14:17:39Z</time>
      </trkpt>
      <trkpt lat="42.915145" lon="0.947445">
        <ele>960.0</ele>
        <time>2012-12-09T14:17:47Z</time>
      </trkpt>
      <trkpt lat="42.915170" lon="0.947282">
        <ele>959.5</ele>
        <time>2012-12-09T14:17:56Z</time>
      </trkpt>
      <trkpt lat="42.915227" lon="0.947159">
        <ele>959.0</ele>
        <time>2012-12-09T14:18:05Z</time>
      </trkpt>
      <trkpt lat="42.915288" lon="0.947019">
        <ele>958.1</ele>
        <time>2012-12-09T14:18:16Z</time>
      </trkpt>
      <trkpt lat="42.915274" lon="0.946856">
        <ele>956.2</ele>
        <time>2012-12-09T14:18:27Z</time>
      </trkpt>
      <trkpt lat="42.915263" lon="0.946728">
        <ele>955.7</ele>
        <time>2012-12-09T14:18:37Z</time>
      </trkpt>
      <trkpt lat="42.915234" lon="0.946571">
        <ele>954.2</ele>
        <time>2012-12-09T14:18:46Z</time>
      </trkpt>
      <trkpt lat="42.915211" lon="0.946444">
        <ele>954.2</ele>
        <time>2012-12-09T14:18:54Z</time>
      </trkpt>
      <trkpt lat="42.915174" lon="0.946299">
        <ele>952.3</ele>
        <time>2012-12-09T14:19:03Z</time>
      </trkpt>
      <trkpt lat="42.915138" lon="0.946155">
        <ele>949.9</ele>
        <time>2012-12-09T14:19:12Z</time>
      </trkpt>
      <trkpt lat="42.915090" lon="0.946048">
        <ele>949.0</ele>
        <time>2012-12-09T14:19:20Z</time>
      </trkpt>
      <trkpt lat="42.915026" lon="0.945934">
        <ele>948.0</ele>
        <time>2012-12-09T14:19:28Z</time>
      </trkpt>
      <trkpt lat="42.914957" lon="0.945822">
        <ele>946.6</ele>
        <time>2012-12-09T14:19:36Z</time>
      </trkpt>
      <trkpt lat="42.914883" lon="0.945733">
        <ele>945.6</ele>
        <time>2012-12-09T14:19:44Z</time>
      </trkpt>
      <trkpt lat="42.914849" lon="0.945649">
        <ele>944.6</ele>
        <time>2012-12-09T14:21:39Z</time>
      </trkpt>
      <trkpt lat="42.914786" lon="0.945628">
        <ele>947.0</ele>
        <time>2012-12-09T14:26:12Z</time>
      </trkpt>
      <trkpt lat="42.914687" lon="0.945574">
        <ele>946.1</ele>
        <time>2012-12-09T14:26:28Z</time>
      </trkpt>
      <trkpt lat="42.914602" lon="0.945488">
        <ele>945.6</ele>
        <time>2012-12-09T14:26:39Z</time>
      </trkpt>
      <trkpt lat="42.914505" lon="0.945374">
        <ele>944.6</ele>
        <time>2012-12-09T14:26:49Z</time>
      </trkpt>
      <trkpt lat="42.914403" lon="0.945289">
        <ele>943.7</ele>
        <time>2012-12-09T14:26:58Z</time>
      </trkpt>
      <trkpt lat="42.914307" lon="0.945227">
        <ele>942.2</ele>
        <time>2012-12-09T14:27:07Z</time>
      </trkpt>
      <trkpt lat="42.914212" lon="0.945154">
        <ele>941.3</ele>
        <time>2012-12-09T14:27:16Z</time>
      </trkpt>
      <trkpt lat="42.914116" lon="0.945052">
        <ele>939.8</ele>
        <time>2012-12-09T14:27:25Z</time>
      </trkpt>
      <trkpt lat="42.914027" lon="0.944990">
        <ele>938.4</ele>
        <time>2012-12-09T14:27:34Z</time>
      </trkpt>
      <trkpt lat="42.913937" lon="0.944911">
        <ele>936.5</ele>
        <time>2012-12-09T14:27:42Z</time>
      </trkpt>
      <trkpt lat="42.913837" lon="0.944868">
        <ele>934.5</ele>
        <time>2012-12-09T14:27:50Z</time>
      </trkpt>
      <trkpt lat="42.913745" lon="0.944797">
        <ele>933.1</ele>
        <time>2012-12-09T14:27:58Z</time>
      </trkpt>
      <trkpt lat="42.913816" lon="0.944728">
        <ele>933.1</ele>
        <time>2012-12-09T14:31:59Z</time>
      </trkpt>
      <trkpt lat="42.913953" lon="0.944664">
        <ele>930.7</ele>
        <time>2012-12-09T14:32:15Z</time>
      </trkpt>
      <trkpt lat="42.914066" lon="0.944674">
        <ele>929.2</ele>
        <time>2012-12-09T14:32:26Z</time>
      </trkpt>
      <trkpt lat="42.914224" lon="0.944680">
        <ele>926.4</ele>
        <time>2012-12-09T14:32:41Z</time>
      </trkpt>
      <trkpt lat="42.914271" lon="0.944571">
        <ele>921.1</ele>
        <time>2012-12-09T14:32:59Z</time>
      </trkpt>
      <trkpt lat="42.914394" lon="0.944475">
        <ele>914.8</ele>
        <time>2012-12-09T14:33:22Z</time>
      </trkpt>
      <trkpt lat="42.914438" lon="0.944355">
        <ele>910.5</ele>
        <time>2012-12-09T14:33:34Z</time>
      </trkpt>
      <trkpt lat="42.914460" lon="0.944173">
        <ele>902.3</ele>
        <time>2012-12-09T14:33:51Z</time>
      </trkpt>
      <trkpt lat="42.914493" lon="0.944030">
        <ele>894.6</ele>
        <time>2012-12-09T14:34:08Z</time>
      </trkpt>
      <trkpt lat="42.914507" lon="0.943835">
        <ele>888.4</ele>
        <time>2012-12-09T14:34:24Z</time>
      </trkpt>
      <trkpt lat="42.914601" lon="0.943633">
        <ele>881.2</ele>
        <time>2012-12-09T14:34:41Z</time>
      </trkpt>
      <trkpt lat="42.914673" lon="0.943498">
        <ele>875.9</ele>
        <time>2012-12-09T14:35:02Z</time>
      </trkpt>
      <trkpt lat="42.914702" lon="0.943326">
        <ele>869.2</ele>
        <time>2012-12-09T14:35:21Z</time>
      </trkpt>
      <trkpt lat="42.914570" lon="0.943196">
        <ele>867.7</ele>
        <time>2012-12-09T14:35:44Z</time>
      </trkpt>
      <trkpt lat="42.914482" lon="0.943092">
        <ele>868.7</ele>
        <time>2012-12-09T14:36:23Z</time>
      </trkpt>
      <trkpt lat="42.914558" lon="0.942943">
        <ele>869.7</ele>
        <time>2012-12-09T14:36:37Z</time>
      </trkpt>
      <trkpt lat="42.914614" lon="0.942795">
        <ele>872.0</ele>
        <time>2012-12-09T14:36:47Z</time>
      </trkpt>
      <trkpt lat="42.914608" lon="0.942657">
        <ele>871.6</ele>
        <time>2012-12-09T14:36:57Z</time>
      </trkpt>
      <trkpt lat="42.914556" lon="0.942518">
        <ele>870.6</ele>
        <time>2012-12-09T14:37:08Z</time>
      </trkpt>
      <trkpt lat="42.914469" lon="0.942466">
        <ele>869.7</ele>
        <time>2012-12-09T14:37:17Z</time>
      </trkpt>
      <trkpt lat="42.914370" lon="0.942425">
        <ele>870.1</ele>
        <time>2012-12-09T14:37:27Z</time>
      </trkpt>
      <trkpt lat="42.914288" lon="0.942362">
        <ele>871.1</ele>
        <time>2012-12-09T14:37:39Z</time>
      </trkpt>
      <trkpt lat="42.914182" lon="0.942283">
        <ele>872.5</ele>
        <time>2012-12-09T14:37:58Z</time>
        <name>Ruisseau de Cassech</name>
      </trkpt>
      <trkpt lat="42.914079" lon="0.942211">
        <ele>873.5</ele>
        <time>2012-12-09T14:38:15Z</time>
      </trkpt>
      <trkpt lat="42.914167" lon="0.942153">
        <ele>871.1</ele>
        <time>2012-12-09T14:38:28Z</time>
      </trkpt>
      <trkpt lat="42.914200" lon="0.942025">
        <ele>871.1</ele>
        <time>2012-12-09T14:38:38Z</time>
      </trkpt>
      <trkpt lat="42.914175" lon="0.941884">
        <ele>873.5</ele>
        <time>2012-12-09T14:38:55Z</time>
      </trkpt>
      <trkpt lat="42.914219" lon="0.941725">
        <ele>872.5</ele>
        <time>2012-12-09T14:39:09Z</time>
      </trkpt>
      <trkpt lat="42.914361" lon="0.941671">
        <ele>872.5</ele>
        <time>2012-12-09T14:39:23Z</time>
      </trkpt>
      <trkpt lat="42.914481" lon="0.941611">
        <ele>873.0</ele>
        <time>2012-12-09T14:39:35Z</time>
      </trkpt>
      <trkpt lat="42.914597" lon="0.941560">
        <ele>872.0</ele>
        <time>2012-12-09T14:39:47Z</time>
      </trkpt>
      <trkpt lat="42.914728" lon="0.941489">
        <ele>870.6</ele>
        <time>2012-12-09T14:40:00Z</time>
      </trkpt>
      <trkpt lat="42.914845" lon="0.941420">
        <ele>871.1</ele>
        <time>2012-12-09T14:40:10Z</time>
      </trkpt>
      <trkpt lat="42.914937" lon="0.941347">
        <ele>870.1</ele>
        <time>2012-12-09T14:40:19Z</time>
      </trkpt>
      <trkpt lat="42.915011" lon="0.941263">
        <ele>869.7</ele>
        <time>2012-12-09T14:40:28Z</time>
      </trkpt>
      <trkpt lat="42.915027" lon="0.941126">
        <ele>869.7</ele>
        <time>2012-12-09T14:40:38Z</time>
      </trkpt>
      <trkpt lat="42.915010" lon="0.940976">
        <ele>869.7</ele>
        <time>2012-12-09T14:40:49Z</time>
      </trkpt>
      <trkpt lat="42.914949" lon="0.940801">
        <ele>870.1</ele>
        <time>2012-12-09T14:40:59Z</time>
      </trkpt>
      <trkpt lat="42.914885" lon="0.940759">
        <ele>872.5</ele>
        <time>2012-12-09T14:41:12Z</time>
      </trkpt>
      <trkpt lat="42.914871" lon="0.940609">
        <ele>871.1</ele>
        <time>2012-12-09T14:41:26Z</time>
      </trkpt>
      <trkpt lat="42.914843" lon="0.940404">
        <ele>872.0</ele>
        <time>2012-12-09T14:41:38Z</time>
      </trkpt>
      <trkpt lat="42.914822" lon="0.940216">
        <ele>873.0</ele>
        <time>2012-12-09T14:41:51Z</time>
      </trkpt>
      <trkpt lat="42.914786" lon="0.940010">
        <ele>873.0</ele>
        <time>2012-12-09T14:42:03Z</time>
      </trkpt>
      <trkpt lat="42.914762" lon="0.939821">
        <ele>873.0</ele>
        <time>2012-12-09T14:42:13Z</time>
      </trkpt>
      <trkpt lat="42.914771" lon="0.939678">
        <ele>871.6</ele>
        <time>2012-12-09T14:42:28Z</time>
      </trkpt>
      <trkpt lat="42.914752" lon="0.939520">
        <ele>872.5</ele>
        <time>2012-12-09T14:42:47Z</time>
      </trkpt>
      <trkpt lat="42.914798" lon="0.939471">
        <ele>871.6</ele>
        <time>2012-12-09T14:43:29Z</time>
      </trkpt>
      <trkpt lat="42.914941" lon="0.939541">
        <ele>872.0</ele>
        <time>2012-12-09T14:43:54Z</time>
      </trkpt>
      <trkpt lat="42.915051" lon="0.939673">
        <ele>872.5</ele>
        <time>2012-12-09T14:44:09Z</time>
      </trkpt>
      <trkpt lat="42.915192" lon="0.939763">
        <ele>873.5</ele>
        <time>2012-12-09T14:44:25Z</time>
      </trkpt>
      <trkpt lat="42.915329" lon="0.939831">
        <ele>874.5</ele>
        <time>2012-12-09T14:44:39Z</time>
      </trkpt>
      <trkpt lat="42.915490" lon="0.939851">
        <ele>874.0</ele>
        <time>2012-12-09T14:44:52Z</time>
      </trkpt>
      <trkpt lat="42.915597" lon="0.939910">
        <ele>873.5</ele>
        <time>2012-12-09T14:45:03Z</time>
      </trkpt>
      <trkpt lat="42.915724" lon="0.939935">
        <ele>875.4</ele>
        <time>2012-12-09T14:45:16Z</time>
      </trkpt>
      <trkpt lat="42.915890" lon="0.939913">
        <ele>876.9</ele>
        <time>2012-12-09T14:45:34Z</time>
      </trkpt>
      <trkpt lat="42.915997" lon="0.939931">
        <ele>878.3</ele>
        <time>2012-12-09T14:45:50Z</time>
      </trkpt>
      <trkpt lat="42.916118" lon="0.939942">
        <ele>879.7</ele>
        <time>2012-12-09T14:46:06Z</time>
      </trkpt>
      <trkpt lat="42.916243" lon="0.940005">
        <ele>879.7</ele>
        <time>2012-12-09T14:46:41Z</time>
      </trkpt>
      <trkpt lat="42.916397" lon="0.940027">
        <ele>878.8</ele>
        <time>2012-12-09T14:46:54Z</time>
      </trkpt>
      <trkpt lat="42.916538" lon="0.940056">
        <ele>878.8</ele>
        <time>2012-12-09T14:47:06Z</time>
      </trkpt>
      <trkpt lat="42.916679" lon="0.940099">
        <ele>878.8</ele>
        <time>2012-12-09T14:47:18Z</time>
      </trkpt>
      <trkpt lat="42.916806" lon="0.940129">
        <ele>878.8</ele>
        <time>2012-12-09T14:47:29Z</time>
      </trkpt>
      <trkpt lat="42.916926" lon="0.940168">
        <ele>878.3</ele>
        <time>2012-12-09T14:47:40Z</time>
      </trkpt>
      <trkpt lat="42.917058" lon="0.940190">
        <ele>878.3</ele>
        <time>2012-12-09T14:47:52Z</time>
      </trkpt>
      <trkpt lat="42.917189" lon="0.940190">
        <ele>877.8</ele>
        <time>2012-12-09T14:48:05Z</time>
      </trkpt>
      <trkpt lat="42.917374" lon="0.940147">
        <ele>877.3</ele>
        <time>2012-12-09T14:48:18Z</time>
      </trkpt>
      <trkpt lat="42.917551" lon="0.940072">
        <ele>877.8</ele>
        <time>2012-12-09T14:48:34Z</time>
      </trkpt>
      <trkpt lat="42.917669" lon="0.940009">
        <ele>877.8</ele>
        <time>2012-12-09T14:48:46Z</time>
      </trkpt>
      <trkpt lat="42.917826" lon="0.939917">
        <ele>878.3</ele>
        <time>2012-12-09T14:48:59Z</time>
      </trkpt>
      <trkpt lat="42.917969" lon="0.939879">
        <ele>879.3</ele>
        <time>2012-12-09T14:49:11Z</time>
      </trkpt>
      <trkpt lat="42.918112" lon="0.939860">
        <ele>879.7</ele>
        <time>2012-12-09T14:49:23Z</time>
      </trkpt>
      <trkpt lat="42.918269" lon="0.939851">
        <ele>880.2</ele>
        <time>2012-12-09T14:49:37Z</time>
      </trkpt>
      <trkpt lat="42.918407" lon="0.939893">
        <ele>882.2</ele>
        <time>2012-12-09T14:49:50Z</time>
      </trkpt>
      <trkpt lat="42.918548" lon="0.939929">
        <ele>883.6</ele>
        <time>2012-12-09T14:50:02Z</time>
      </trkpt>
      <trkpt lat="42.918685" lon="0.939934">
        <ele>884.1</ele>
        <time>2012-12-09T14:50:13Z</time>
      </trkpt>
      <trkpt lat="42.918781" lon="0.939925">
        <ele>884.5</ele>
        <time>2012-12-09T14:50:22Z</time>
      </trkpt>
      <trkpt lat="42.918879" lon="0.939907">
        <ele>884.5</ele>
        <time>2012-12-09T14:50:31Z</time>
      </trkpt>
      <trkpt lat="42.918969" lon="0.939871">
        <ele>884.1</ele>
        <time>2012-12-09T14:50:40Z</time>
      </trkpt>
      <trkpt lat="42.919054" lon="0.939910">
        <ele>884.1</ele>
        <time>2012-12-09T14:51:29Z</time>
      </trkpt>
    </trkseg>
  </trk>
</gpx>

